<?xml version='1.0' encoding='UTF-8'?><gpx version="1.1" creator="JPX - https://github.com/jenetics/jpx" xmlns="http://www.topografix.com/GPX/1/1"><trk><trkseg><trkpt lat="45.601260739162484" lon="8.93611874783997"><ele>215.00000000000003</ele><time>2026-04-19T07:52:14.999Z</time></trkpt><trkpt lat="45.60126499180193" lon="8.936224699472163"><ele>215.0</ele><time>2026-04-19T07:52:18.999Z</time></trkpt><trkpt lat="45.60133991615612" lon="8.936346373033167"><ele>215.0</ele><time>2026-04-19T07:52:21.999Z</time></trkpt><trkpt lat="45.60137728902378" lon="8.936436576141036"><ele>215.0</ele><time>2026-04-19T07:52:25.999Z</time></trkpt><trkpt lat="45.60141902677657" lon="8.936544022512997"><ele>215.00000000000003</ele><time>2026-04-19T07:52:28.999Z</time></trkpt><trkpt lat="45.601455771656624" lon="8.936643068221105"><ele>215.0</ele><time>2026-04-19T07:52:31.999Z</time></trkpt><trkpt lat="45.6015032129759" lon="8.936714546425726"><ele>215.00000000000003</ele><time>2026-04-19T07:52:34.999Z</time></trkpt><trkpt lat="45.60157727338462" lon="8.936745808716905"><ele>215.0</ele><time>2026-04-19T07:52:37.999Z</time></trkpt><trkpt lat="45.60166904895156" lon="8.93670019029541"><ele>215.0</ele><time>2026-04-19T07:52:41.999Z</time></trkpt><trkpt lat="45.60173268497402" lon="8.93667034383029"><ele>215.0</ele><time>2026-04-19T07:52:44.999Z</time></trkpt><trkpt lat="45.60179180846319" lon="8.936591739183642"><ele>215.00000000000003</ele><time>2026-04-19T07:52:47.999Z</time></trkpt><trkpt lat="45.60178114977277" lon="8.936490503936154"><ele>215.0</ele><time>2026-04-19T07:52:49.999Z</time></trkpt><trkpt lat="45.60181953433823" lon="8.936362375320451"><ele>215.00000000000003</ele><time>2026-04-19T07:52:55.999Z</time></trkpt><trkpt lat="45.601844075835004" lon="8.936202552474281"><ele>215.0</ele><time>2026-04-19T07:52:58.999Z</time></trkpt><trkpt lat="45.6018861779948" lon="8.936100819037584"><ele>215.0</ele><time>2026-04-19T07:53:01.999Z</time></trkpt><trkpt lat="45.601940595042265" lon="8.936042074244511"><ele>215.0</ele><time>2026-04-19T07:53:04.999Z</time></trkpt><trkpt lat="45.60201867333579" lon="8.935986363293972"><ele>215.00000000000003</ele><time>2026-04-19T07:53:07.999Z</time></trkpt><trkpt lat="45.60207345386772" lon="8.93592059954533"><ele>215.0</ele><time>2026-04-19T07:53:10.999Z</time></trkpt><trkpt lat="45.6021224351515" lon="8.935852276387966"><ele>215.33333333333334</ele><time>2026-04-19T07:53:13.999Z</time></trkpt><trkpt lat="45.602156933444626" lon="8.935749241129693"><ele>215.66666666666669</ele><time>2026-04-19T07:53:16.999Z</time></trkpt><trkpt lat="45.602216476131275" lon="8.935680443604392"><ele>216.0</ele><time>2026-04-19T07:53:19.999Z</time></trkpt><trkpt lat="45.60226761495779" lon="8.935625349324523"><ele>216.33333333333331</ele><time>2026-04-19T07:53:22.999Z</time></trkpt><trkpt lat="45.602287930624726" lon="8.935519038104754"><ele>216.66666666666666</ele><time>2026-04-19T07:53:25.999Z</time></trkpt><trkpt lat="45.60235857734083" lon="8.935462614065084"><ele>217.0</ele><time>2026-04-19T07:53:28.999Z</time></trkpt><trkpt lat="45.60241005346119" lon="8.935380136006026"><ele>217.0</ele><time>2026-04-19T07:53:31.999Z</time></trkpt><trkpt lat="45.60245514412733" lon="8.935294204962561"><ele>217.0</ele><time>2026-04-19T07:53:34.999Z</time></trkpt><trkpt lat="45.60250757523256" lon="8.935216397789006"><ele>217.0</ele><time>2026-04-19T07:53:37.999Z</time></trkpt><trkpt lat="45.60255141181202" lon="8.935146878102"><ele>217.0</ele><time>2026-04-19T07:53:40.998Z</time></trkpt><trkpt lat="45.60259288667992" lon="8.935070149194939"><ele>217.0</ele><time>2026-04-19T07:53:43.999Z</time></trkpt><trkpt lat="45.602640166989396" lon="8.934986648582244"><ele>217.0</ele><time>2026-04-19T07:53:46.999Z</time></trkpt><trkpt lat="45.602699354686074" lon="8.93489414364144"><ele>217.0</ele><time>2026-04-19T07:53:49.999Z</time></trkpt><trkpt lat="45.602755868363495" lon="8.934824265614152"><ele>216.99999999999997</ele><time>2026-04-19T07:53:52.999Z</time></trkpt><trkpt lat="45.602802298624624" lon="8.934746385101803"><ele>217.0</ele><time>2026-04-19T07:53:55.999Z</time></trkpt><trkpt lat="45.602831798004075" lon="8.934666571092313"><ele>217.0</ele><time>2026-04-19T07:53:57.999Z</time></trkpt><trkpt lat="45.60286938875724" lon="8.93459012802334"><ele>217.0</ele><time>2026-04-19T07:54:00.999Z</time></trkpt><trkpt lat="45.60291898839487" lon="8.934524066444565"><ele>216.99999999999997</ele><time>2026-04-19T07:54:03.999Z</time></trkpt><trkpt lat="45.60298818961683" lon="8.934538381855583"><ele>217.0</ele><time>2026-04-19T07:54:05.999Z</time></trkpt><trkpt lat="45.60310148536955" lon="8.934550370034959"><ele>218.25</ele><time>2026-04-19T07:54:10.999Z</time></trkpt><trkpt lat="45.60328946219653" lon="8.934563112933425"><ele>219.5</ele><time>2026-04-19T07:54:17.999Z</time></trkpt><trkpt lat="45.60344385352829" lon="8.934552142213683"><ele>220.75</ele><time>2026-04-19T07:54:24.999Z</time></trkpt><trkpt lat="45.603518823936646" lon="8.934571783760067"><ele>222.0</ele><time>2026-04-19T07:54:27.999Z</time></trkpt><trkpt lat="45.60362834807197" lon="8.93459417468831"><ele>221.8</ele><time>2026-04-19T07:54:31.999Z</time></trkpt><trkpt lat="45.60378014389704" lon="8.934518067623388"><ele>221.6</ele><time>2026-04-19T07:54:38.999Z</time></trkpt><trkpt lat="45.60386073086362" lon="8.934510637483294"><ele>221.40000000000003</ele><time>2026-04-19T07:54:41.999Z</time></trkpt><trkpt lat="45.60393162351636" lon="8.934519387176023"><ele>221.20000000000002</ele><time>2026-04-19T07:54:44.999Z</time></trkpt><trkpt lat="45.604001489068274" lon="8.934512532869604"><ele>221.0</ele><time>2026-04-19T07:54:47.999Z</time></trkpt><trkpt lat="45.60407955018656" lon="8.934516398585954"><ele>221.00000000000003</ele><time>2026-04-19T07:54:50.999Z</time></trkpt><trkpt lat="45.604151661934495" lon="8.934502369934908"><ele>221.0</ele><time>2026-04-19T07:54:54.999Z</time></trkpt><trkpt lat="45.604229430482874" lon="8.934462863322723"><ele>221.0</ele><time>2026-04-19T07:54:57.999Z</time></trkpt><trkpt lat="45.604285739276364" lon="8.934382096272088"><ele>221.0</ele><time>2026-04-19T07:55:00.999Z</time></trkpt><trkpt lat="45.60437125602768" lon="8.934355143825767"><ele>221.00000000000003</ele><time>2026-04-19T07:55:03.999Z</time></trkpt><trkpt lat="45.60444502834416" lon="8.9343344891916"><ele>221.0</ele><time>2026-04-19T07:55:06.999Z</time></trkpt><trkpt lat="45.6045013273677" lon="8.93428958863455"><ele>221.2857142857143</ele><time>2026-04-19T07:55:09.999Z</time></trkpt><trkpt lat="45.60458071747156" lon="8.934271418091429"><ele>221.57142857142858</ele><time>2026-04-19T07:55:13.999Z</time></trkpt><trkpt lat="45.60464988510291" lon="8.934269531084825"><ele>221.85714285714286</ele><time>2026-04-19T07:55:16.999Z</time></trkpt><trkpt lat="45.60472065635663" lon="8.93426119115255"><ele>222.14285714285717</ele><time>2026-04-19T07:55:19.999Z</time></trkpt><trkpt lat="45.60478535339997" lon="8.934237345993454"><ele>222.42857142857142</ele><time>2026-04-19T07:55:22.999Z</time></trkpt><trkpt lat="45.60486292801641" lon="8.934244793453745"><ele>222.71428571428572</ele><time>2026-04-19T07:55:25.999Z</time></trkpt><trkpt lat="45.60491939812218" lon="8.934305626363372"><ele>223.0</ele><time>2026-04-19T07:55:27.999Z</time></trkpt><trkpt lat="45.60498202137787" lon="8.934360006818372"><ele>222.99999999999997</ele><time>2026-04-19T07:55:30.999Z</time></trkpt><trkpt lat="45.60503778159509" lon="8.934402691592044"><ele>223.0</ele><time>2026-04-19T07:55:33.999Z</time></trkpt><trkpt lat="45.60510356913472" lon="8.934381660177678"><ele>223.0</ele><time>2026-04-19T07:55:35.999Z</time></trkpt><trkpt lat="45.60519157402865" lon="8.934369302119649"><ele>223.0</ele><time>2026-04-19T07:55:38.999Z</time></trkpt><trkpt lat="45.60526419751955" lon="8.934359167779267"><ele>222.99999999999997</ele><time>2026-04-19T07:55:41.999Z</time></trkpt><trkpt lat="45.60533892262241" lon="8.934317017848931"><ele>223.0</ele><time>2026-04-19T07:55:45.999Z</time></trkpt><trkpt lat="45.605418437273165" lon="8.934329662719378"><ele>222.85714285714286</ele><time>2026-04-19T07:55:48.999Z</time></trkpt><trkpt lat="45.6054710675175" lon="8.934280260402815"><ele>222.71428571428572</ele><time>2026-04-19T07:55:50.999Z</time></trkpt><trkpt lat="45.60555155350603" lon="8.934291602657735"><ele>222.57142857142856</ele><time>2026-04-19T07:55:53.999Z</time></trkpt><trkpt lat="45.6056161034412" lon="8.93426506615655"><ele>222.42857142857144</ele><time>2026-04-19T07:55:56.999Z</time></trkpt><trkpt lat="45.60567913823445" lon="8.934232554687668"><ele>222.2857142857143</ele><time>2026-04-19T07:55:59.999Z</time></trkpt><trkpt lat="45.605747086372205" lon="8.934213871022916"><ele>222.14285714285714</ele><time>2026-04-19T07:56:02.999Z</time></trkpt><trkpt lat="45.605826205061284" lon="8.934192809066447"><ele>222.0</ele><time>2026-04-19T07:56:05.999Z</time></trkpt><trkpt lat="45.60590754921318" lon="8.93420138124397"><ele>221.66666666666666</ele><time>2026-04-19T07:56:08.999Z</time></trkpt><trkpt lat="45.60596936189535" lon="8.934143735135997"><ele>221.33333333333331</ele><time>2026-04-19T07:56:11.999Z</time></trkpt><trkpt lat="45.60596544137975" lon="8.934015200877237"><ele>221.0</ele><time>2026-04-19T07:56:14.999Z</time></trkpt><trkpt lat="45.605924254199216" lon="8.933942322335577"><ele>220.66666666666666</ele><time>2026-04-19T07:56:16.999Z</time></trkpt><trkpt lat="45.60586956388093" lon="8.933851661511024"><ele>220.33333333333331</ele><time>2026-04-19T07:56:19.999Z</time></trkpt><trkpt lat="45.60581687872464" lon="8.933792117953773"><ele>220.0</ele><time>2026-04-19T07:56:21.999Z</time></trkpt><trkpt lat="45.60575776388425" lon="8.933698117737185"><ele>219.99999999999997</ele><time>2026-04-19T07:56:24.999Z</time></trkpt><trkpt lat="45.605698304849824" lon="8.933600399291292"><ele>220.0</ele><time>2026-04-19T07:56:27.999Z</time></trkpt><trkpt lat="45.60565208915925" lon="8.9335260796997"><ele>220.0</ele><time>2026-04-19T07:56:30.999Z</time></trkpt><trkpt lat="45.60560539438378" lon="8.933453802656338"><ele>220.0</ele><time>2026-04-19T07:56:33.999Z</time></trkpt><trkpt lat="45.605545024270434" lon="8.933367241568636"><ele>219.99999999999997</ele><time>2026-04-19T07:56:36.999Z</time></trkpt><trkpt lat="45.60548843403034" lon="8.933293437802002"><ele>220.0</ele><time>2026-04-19T07:56:39.999Z</time></trkpt><trkpt lat="45.60545384870349" lon="8.93318974563532"><ele>219.99999999999997</ele><time>2026-04-19T07:56:41.999Z</time></trkpt><trkpt lat="45.60542219504983" lon="8.933105788979796"><ele>220.0</ele><time>2026-04-19T07:56:43.999Z</time></trkpt><trkpt lat="45.605371670354046" lon="8.933006138905972"><ele>220.0</ele><time>2026-04-19T07:56:46.999Z</time></trkpt><trkpt lat="45.60530974691328" lon="8.932941105007405"><ele>220.0</ele><time>2026-04-19T07:56:49.999Z</time></trkpt><trkpt lat="45.60526467388516" lon="8.932852982526256"><ele>219.99999999999997</ele><time>2026-04-19T07:56:52.999Z</time></trkpt><trkpt lat="45.605194702678666" lon="8.932782340827146"><ele>220.0</ele><time>2026-04-19T07:56:55.999Z</time></trkpt><trkpt lat="45.60513693165603" lon="8.932681103970687"><ele>219.49999999999997</ele><time>2026-04-19T07:56:58.999Z</time></trkpt><trkpt lat="45.605075640723776" lon="8.932608332840163"><ele>219.0</ele><time>2026-04-19T07:57:01.999Z</time></trkpt><trkpt lat="45.60502305922702" lon="8.93255274311046"><ele>218.5</ele><time>2026-04-19T07:57:03.999Z</time></trkpt><trkpt lat="45.6049608678499" lon="8.932465800252304"><ele>218.0</ele><time>2026-04-19T07:57:06.999Z</time></trkpt><trkpt lat="45.60489789377192" lon="8.932385839932252"><ele>217.49999999999997</ele><time>2026-04-19T07:57:09.999Z</time></trkpt><trkpt lat="45.60484678010367" lon="8.932324259815672"><ele>217.0</ele><time>2026-04-19T07:57:11.999Z</time></trkpt><trkpt lat="45.60478587661647" lon="8.932255931580386"><ele>215.99999999999997</ele><time>2026-04-19T07:57:14.999Z</time></trkpt><trkpt lat="45.6047346788927" lon="8.932160992633197"><ele>215.0</ele><time>2026-04-19T07:57:17.999Z</time></trkpt><trkpt lat="45.60467557944775" lon="8.932073303998212"><ele>214.0</ele><time>2026-04-19T07:57:20.999Z</time></trkpt><trkpt lat="45.60460484223247" lon="8.932013677906598"><ele>213.0</ele><time>2026-04-19T07:57:23.999Z</time></trkpt><trkpt lat="45.60455116977477" lon="8.931960528890922"><ele>211.99999999999997</ele><time>2026-04-19T07:57:25.999Z</time></trkpt><trkpt lat="45.60447487419635" lon="8.931885100927733"><ele>211.0</ele><time>2026-04-19T07:57:28.999Z</time></trkpt><trkpt lat="45.60442881634178" lon="8.931778370376042"><ele>210.49999999999997</ele><time>2026-04-19T07:57:31.999Z</time></trkpt><trkpt lat="45.604363704626984" lon="8.931714233411506"><ele>210.0</ele><time>2026-04-19T07:57:34.999Z</time></trkpt><trkpt lat="45.60429725039862" lon="8.931617831857077"><ele>209.5</ele><time>2026-04-19T07:57:37.999Z</time></trkpt><trkpt lat="45.60423337432286" lon="8.931543674736048"><ele>209.0</ele><time>2026-04-19T07:57:40.999Z</time></trkpt><trkpt lat="45.604192506168886" lon="8.931474785280512"><ele>208.49999999999997</ele><time>2026-04-19T07:57:42.999Z</time></trkpt><trkpt lat="45.60415257449629" lon="8.931393292328044"><ele>208.0</ele><time>2026-04-19T07:57:45.999Z</time></trkpt><trkpt lat="45.604098053935196" lon="8.931311028670446"><ele>207.99999999999997</ele><time>2026-04-19T07:57:48.999Z</time></trkpt><trkpt lat="45.60403018812825" lon="8.93125271637733"><ele>208.0</ele><time>2026-04-19T07:57:51.999Z</time></trkpt><trkpt lat="45.603973281536945" lon="8.931168272914556"><ele>208.0</ele><time>2026-04-19T07:57:55Z</time></trkpt><trkpt lat="45.603911193531324" lon="8.93110113606848"><ele>208.0</ele><time>2026-04-19T07:57:59Z</time></trkpt><trkpt lat="45.60385626883717" lon="8.931027471204617"><ele>207.99999999999997</ele><time>2026-04-19T07:58:02Z</time></trkpt><trkpt lat="45.60381610812038" lon="8.930953455214365"><ele>208.0</ele><time>2026-04-19T07:58:05Z</time></trkpt><trkpt lat="45.60376427045809" lon="8.930860607877532"><ele>207.99999999999997</ele><time>2026-04-19T07:58:08Z</time></trkpt><trkpt lat="45.603694166655515" lon="8.93080679560679"><ele>208.0</ele><time>2026-04-19T07:58:11Z</time></trkpt><trkpt lat="45.603625947052514" lon="8.930744347376821"><ele>208.0</ele><time>2026-04-19T07:58:14Z</time></trkpt><trkpt lat="45.60356355020727" lon="8.930660949314737"><ele>208.0</ele><time>2026-04-19T07:58:17Z</time></trkpt><trkpt lat="45.60351770536801" lon="8.930573740915863"><ele>207.99999999999997</ele><time>2026-04-19T07:58:20Z</time></trkpt><trkpt lat="45.603594349017605" lon="8.930475313460441"><ele>208.0</ele><time>2026-04-19T07:58:23Z</time></trkpt><trkpt lat="45.60366682983493" lon="8.93041286908475"><ele>207.99999999999997</ele><time>2026-04-19T07:58:26Z</time></trkpt><trkpt lat="45.60374992054137" lon="8.930453865827841"><ele>208.0</ele><time>2026-04-19T07:58:29Z</time></trkpt><trkpt lat="45.603801168909925" lon="8.930563731906071"><ele>208.0</ele><time>2026-04-19T07:58:31Z</time></trkpt><trkpt lat="45.603813417990004" lon="8.930699110937008"><ele>208.0</ele><time>2026-04-19T07:58:34Z</time></trkpt><trkpt lat="45.60380340541886" lon="8.930800495387125"><ele>207.99999999999997</ele><time>2026-04-19T07:58:37Z</time></trkpt><trkpt lat="45.60383567278958" lon="8.93090562111613"><ele>208.0</ele><time>2026-04-19T07:58:40Z</time></trkpt><trkpt lat="45.6038923143577" lon="8.930959806687332"><ele>207.99999999999997</ele><time>2026-04-19T07:58:42Z</time></trkpt><trkpt lat="45.60395891054521" lon="8.931026412547897"><ele>208.0</ele><time>2026-04-19T07:58:45Z</time></trkpt><trkpt lat="45.60402365251874" lon="8.931084396455038"><ele>208.0</ele><time>2026-04-19T07:58:48Z</time></trkpt><trkpt lat="45.6040800219865" lon="8.931162216262035"><ele>208.0</ele><time>2026-04-19T07:58:51Z</time></trkpt><trkpt lat="45.604150777444545" lon="8.93122299908604"><ele>207.99999999999997</ele><time>2026-04-19T07:58:54Z</time></trkpt><trkpt lat="45.604208549045474" lon="8.931296910964049"><ele>208.0</ele><time>2026-04-19T07:58:57Z</time></trkpt><trkpt lat="45.604261545795936" lon="8.93136096306574"><ele>208.0</ele><time>2026-04-19T07:59:00Z</time></trkpt><trkpt lat="45.60431982629247" lon="8.931442866522891"><ele>208.0</ele><time>2026-04-19T07:59:03Z</time></trkpt><trkpt lat="45.604378313216095" lon="8.931517749302422"><ele>208.0</ele><time>2026-04-19T07:59:06Z</time></trkpt><trkpt lat="45.60440672277495" lon="8.931611085094088"><ele>208.0</ele><time>2026-04-19T07:59:08Z</time></trkpt><trkpt lat="45.60446583595179" lon="8.931685348436181"><ele>208.0</ele><time>2026-04-19T07:59:11Z</time></trkpt><trkpt lat="45.60451987570095" lon="8.931744814772337"><ele>208.0</ele><time>2026-04-19T07:59:14Z</time></trkpt><trkpt lat="45.60457035921602" lon="8.931816255349194"><ele>208.0</ele><time>2026-04-19T07:59:17Z</time></trkpt><trkpt lat="45.60462368746597" lon="8.9318757070818"><ele>208.42857142857142</ele><time>2026-04-19T07:59:20Z</time></trkpt><trkpt lat="45.60467994822407" lon="8.931931026235556"><ele>208.85714285714286</ele><time>2026-04-19T07:59:23Z</time></trkpt><trkpt lat="45.60474514784361" lon="8.931966907171404"><ele>209.28571428571428</ele><time>2026-04-19T07:59:26Z</time></trkpt><trkpt lat="45.604806740000626" lon="8.932045597992813"><ele>209.71428571428572</ele><time>2026-04-19T07:59:29Z</time></trkpt><trkpt lat="45.60486555949754" lon="8.932138323198306"><ele>210.14285714285717</ele><time>2026-04-19T07:59:32Z</time></trkpt><trkpt lat="45.60491688302481" lon="8.932214212547166"><ele>210.57142857142858</ele><time>2026-04-19T07:59:34.999Z</time></trkpt><trkpt lat="45.60496130569271" lon="8.932281218343858"><ele>211.0</ele><time>2026-04-19T07:59:37.999Z</time></trkpt><trkpt lat="45.6049965356594" lon="8.932357704476887"><ele>210.99999999999997</ele><time>2026-04-19T07:59:40.999Z</time></trkpt><trkpt lat="45.60505237608727" lon="8.932402863065743"><ele>211.0</ele><time>2026-04-19T07:59:43.999Z</time></trkpt><trkpt lat="45.60510310816566" lon="8.932491611250626"><ele>211.0</ele><time>2026-04-19T07:59:46.999Z</time></trkpt><trkpt lat="45.60516784239428" lon="8.932557640481868"><ele>211.0</ele><time>2026-04-19T07:59:49.999Z</time></trkpt><trkpt lat="45.6052301646077" lon="8.93260167940676"><ele>210.99999999999997</ele><time>2026-04-19T07:59:52.999Z</time></trkpt><trkpt lat="45.6052852498359" lon="8.932686049506733"><ele>211.0</ele><time>2026-04-19T07:59:55.999Z</time></trkpt><trkpt lat="45.60533338563216" lon="8.932775166021479"><ele>212.28571428571428</ele><time>2026-04-19T07:59:58.999Z</time></trkpt><trkpt lat="45.60538147036388" lon="8.93286052080196"><ele>213.57142857142858</ele><time>2026-04-19T08:00:02Z</time></trkpt><trkpt lat="45.60542722586265" lon="8.932949236077297"><ele>214.85714285714283</ele><time>2026-04-19T08:00:05Z</time></trkpt><trkpt lat="45.6054749824778" lon="8.933020894941258"><ele>216.14285714285714</ele><time>2026-04-19T08:00:08Z</time></trkpt><trkpt lat="45.60553213463528" lon="8.93308162643285"><ele>217.42857142857142</ele><time>2026-04-19T08:00:11Z</time></trkpt><trkpt lat="45.60558491236429" lon="8.933149327348964"><ele>218.7142857142857</ele><time>2026-04-19T08:00:14Z</time></trkpt><trkpt lat="45.6056299699567" lon="8.93323231457398"><ele>220.0</ele><time>2026-04-19T08:00:17Z</time></trkpt><trkpt lat="45.60567818428262" lon="8.933309544356476"><ele>219.99999999999997</ele><time>2026-04-19T08:00:20Z</time></trkpt><trkpt lat="45.60573092922462" lon="8.933382183037352"><ele>220.0</ele><time>2026-04-19T08:00:23Z</time></trkpt><trkpt lat="45.605768190392816" lon="8.933475182386038"><ele>220.0</ele><time>2026-04-19T08:00:26Z</time></trkpt><trkpt lat="45.605822119485964" lon="8.933548739970684"><ele>220.0</ele><time>2026-04-19T08:00:29Z</time></trkpt><trkpt lat="45.60587822705474" lon="8.93361857971568"><ele>220.0</ele><time>2026-04-19T08:00:32Z</time></trkpt><trkpt lat="45.60591949866117" lon="8.933693769709125"><ele>219.99999999999997</ele><time>2026-04-19T08:00:35Z</time></trkpt><trkpt lat="45.60596541877466" lon="8.933770309457813"><ele>220.0</ele><time>2026-04-19T08:00:38Z</time></trkpt><trkpt lat="45.60602586976986" lon="8.9338435545162"><ele>219.99999999999997</ele><time>2026-04-19T08:00:41Z</time></trkpt><trkpt lat="45.60605691686807" lon="8.933949294919902"><ele>220.0</ele><time>2026-04-19T08:00:44Z</time></trkpt><trkpt lat="45.60609831097948" lon="8.93404518636029"><ele>220.0</ele><time>2026-04-19T08:00:47Z</time></trkpt><trkpt lat="45.60610400073269" lon="8.934151243485628"><ele>220.0</ele><time>2026-04-19T08:00:50Z</time></trkpt><trkpt lat="45.60613909255585" lon="8.934256183701388"><ele>219.99999999999997</ele><time>2026-04-19T08:00:53Z</time></trkpt><trkpt lat="45.60619174484922" lon="8.93434239898652"><ele>220.0</ele><time>2026-04-19T08:00:56Z</time></trkpt><trkpt lat="45.6062163534238" lon="8.934452724779169"><ele>219.83333333333331</ele><time>2026-04-19T08:00:59Z</time></trkpt><trkpt lat="45.60626591343788" lon="8.934522076168875"><ele>219.66666666666666</ele><time>2026-04-19T08:01:02Z</time></trkpt><trkpt lat="45.606295925134575" lon="8.934630398684956"><ele>219.5</ele><time>2026-04-19T08:01:05Z</time></trkpt><trkpt lat="45.606315735989405" lon="8.934738174674303"><ele>219.33333333333331</ele><time>2026-04-19T08:01:08Z</time></trkpt><trkpt lat="45.60633573944947" lon="8.934834472051659"><ele>219.16666666666666</ele><time>2026-04-19T08:01:11Z</time></trkpt><trkpt lat="45.60639634412566" lon="8.934909325593548"><ele>219.0</ele><time>2026-04-19T08:01:14Z</time></trkpt><trkpt lat="45.60642972189287" lon="8.935012154615412"><ele>219.0</ele><time>2026-04-19T08:01:17Z</time></trkpt><trkpt lat="45.6064862039414" lon="8.935084787698642"><ele>219.0</ele><time>2026-04-19T08:01:20Z</time></trkpt><trkpt lat="45.60651507344313" lon="8.9351799801219"><ele>219.0</ele><time>2026-04-19T08:01:23Z</time></trkpt><trkpt lat="45.60657505188047" lon="8.935253436458332"><ele>219.0</ele><time>2026-04-19T08:01:26Z</time></trkpt><trkpt lat="45.60660138666616" lon="8.935344013377705"><ele>219.0</ele><time>2026-04-19T08:01:29Z</time></trkpt><trkpt lat="45.60662037927569" lon="8.935445667862043"><ele>219.0</ele><time>2026-04-19T08:01:32Z</time></trkpt><trkpt lat="45.606652438809824" lon="8.935549175766111"><ele>219.0</ele><time>2026-04-19T08:01:35Z</time></trkpt><trkpt lat="45.60669520141925" lon="8.93562669069736"><ele>219.0</ele><time>2026-04-19T08:01:37.999Z</time></trkpt><trkpt lat="45.6067180120727" lon="8.935715641649555"><ele>219.0</ele><time>2026-04-19T08:01:40.999Z</time></trkpt><trkpt lat="45.606751443265644" lon="8.935805836740773"><ele>219.0</ele><time>2026-04-19T08:01:43.999Z</time></trkpt><trkpt lat="45.60677798749564" lon="8.935894772870846"><ele>219.0</ele><time>2026-04-19T08:01:46.999Z</time></trkpt><trkpt lat="45.606777172445206" lon="8.936007630131508"><ele>219.0</ele><time>2026-04-19T08:01:51.016Z</time></trkpt><trkpt lat="45.606779490066145" lon="8.9361116229162"><ele>219.0</ele><time>2026-04-19T08:01:54.015Z</time></trkpt><trkpt lat="45.6067801947305" lon="8.936360141010042"><ele>219.16666666666666</ele><time>2026-04-19T08:02:00.999Z</time></trkpt><trkpt lat="45.60692425336068" lon="8.936406516785857"><ele>219.33333333333331</ele><time>2026-04-19T08:02:02.999Z</time></trkpt><trkpt lat="45.60696796683087" lon="8.936481218066806"><ele>219.5</ele><time>2026-04-19T08:02:04.999Z</time></trkpt><trkpt lat="45.60702092717382" lon="8.936532054896153"><ele>219.66666666666666</ele><time>2026-04-19T08:02:07Z</time></trkpt><trkpt lat="45.60705462522424" lon="8.936623850440162"><ele>219.83333333333331</ele><time>2026-04-19T08:02:10Z</time></trkpt><trkpt lat="45.60710384700158" lon="8.936717872432656"><ele>220.0</ele><time>2026-04-19T08:02:13Z</time></trkpt><trkpt lat="45.60715338445737" lon="8.93681259123572"><ele>219.99999999999997</ele><time>2026-04-19T08:02:16Z</time></trkpt><trkpt lat="45.60720357898503" lon="8.936880575410596"><ele>220.0</ele><time>2026-04-19T08:02:18Z</time></trkpt><trkpt lat="45.60725508205481" lon="8.936959300296623"><ele>220.0</ele><time>2026-04-19T08:02:21Z</time></trkpt><trkpt lat="45.607304101438714" lon="8.937050234813789"><ele>220.0</ele><time>2026-04-19T08:02:24Z</time></trkpt><trkpt lat="45.60733731650003" lon="8.93715065958677"><ele>219.99999999999997</ele><time>2026-04-19T08:02:27Z</time></trkpt><trkpt lat="45.60737592855331" lon="8.937250411406911"><ele>220.0</ele><time>2026-04-19T08:02:30Z</time></trkpt><trkpt lat="45.6074235742574" lon="8.937320257535049"><ele>219.99999999999997</ele><time>2026-04-19T08:02:33Z</time></trkpt><trkpt lat="45.607454257007625" lon="8.937425253009229"><ele>220.0</ele><time>2026-04-19T08:02:36Z</time></trkpt><trkpt lat="45.607476261631575" lon="8.93752526679907"><ele>220.0</ele><time>2026-04-19T08:02:39Z</time></trkpt><trkpt lat="45.60751710469976" lon="8.9375987858504"><ele>220.0</ele><time>2026-04-19T08:02:42Z</time></trkpt><trkpt lat="45.60754916522351" lon="8.93768189282895"><ele>220.0</ele><time>2026-04-19T08:02:45Z</time></trkpt><trkpt lat="45.60757246772136" lon="8.937775464777298"><ele>219.99999999999997</ele><time>2026-04-19T08:02:48Z</time></trkpt><trkpt lat="45.60762349365749" lon="8.93783060732282"><ele>220.0</ele><time>2026-04-19T08:02:51Z</time></trkpt><trkpt lat="45.607683686283444" lon="8.937897724141498"><ele>219.83333333333331</ele><time>2026-04-19T08:02:54Z</time></trkpt><trkpt lat="45.60770378161313" lon="8.937996810918625"><ele>219.66666666666666</ele><time>2026-04-19T08:02:57Z</time></trkpt><trkpt lat="45.607734538536825" lon="8.938097062300576"><ele>219.5</ele><time>2026-04-19T08:03:00Z</time></trkpt><trkpt lat="45.60777190389169" lon="8.938184468636765"><ele>219.33333333333331</ele><time>2026-04-19T08:03:03Z</time></trkpt><trkpt lat="45.607811808824685" lon="8.938292630392663"><ele>219.16666666666666</ele><time>2026-04-19T08:03:06Z</time></trkpt><trkpt lat="45.607854233010436" lon="8.938374976249463"><ele>219.0</ele><time>2026-04-19T08:03:09Z</time></trkpt><trkpt lat="45.60790963952242" lon="8.938460821757081"><ele>218.83333333333334</ele><time>2026-04-19T08:03:12Z</time></trkpt><trkpt lat="45.607951997500365" lon="8.938539162598914"><ele>218.66666666666669</ele><time>2026-04-19T08:03:15Z</time></trkpt><trkpt lat="45.60799244661115" lon="8.938655262906162"><ele>218.5</ele><time>2026-04-19T08:03:18Z</time></trkpt><trkpt lat="45.60804011689087" lon="8.938750935334545"><ele>218.33333333333334</ele><time>2026-04-19T08:03:21Z</time></trkpt><trkpt lat="45.60809399649797" lon="8.93882066964644"><ele>218.16666666666669</ele><time>2026-04-19T08:03:24Z</time></trkpt><trkpt lat="45.60814281806517" lon="8.938921674628599"><ele>218.0</ele><time>2026-04-19T08:03:27Z</time></trkpt><trkpt lat="45.608186436941025" lon="8.93901632704348"><ele>218.00000000000003</ele><time>2026-04-19T08:03:30Z</time></trkpt><trkpt lat="45.608254152771714" lon="8.939106920009703"><ele>218.0</ele><time>2026-04-19T08:03:34Z</time></trkpt><trkpt lat="45.608307188909166" lon="8.939218625188609"><ele>218.0</ele><time>2026-04-19T08:03:37Z</time></trkpt><trkpt lat="45.60835430666483" lon="8.939281524884313"><ele>218.0</ele><time>2026-04-19T08:03:40Z</time></trkpt><trkpt lat="45.608390644501355" lon="8.939359779155277"><ele>218.00000000000003</ele><time>2026-04-19T08:03:42Z</time></trkpt><trkpt lat="45.60844393933227" lon="8.939433722231398"><ele>218.0</ele><time>2026-04-19T08:03:45Z</time></trkpt><trkpt lat="45.60849041202909" lon="8.939519249869388"><ele>218.0</ele><time>2026-04-19T08:03:48Z</time></trkpt><trkpt lat="45.608540796872255" lon="8.939600839722763"><ele>218.0</ele><time>2026-04-19T08:03:51Z</time></trkpt><trkpt lat="45.60858818159979" lon="8.939682317168657"><ele>218.0</ele><time>2026-04-19T08:03:54Z</time></trkpt><trkpt lat="45.608640306602" lon="8.93975359717992"><ele>218.0</ele><time>2026-04-19T08:03:57Z</time></trkpt><trkpt lat="45.60869399993253" lon="8.939815248576126"><ele>218.0</ele><time>2026-04-19T08:04:00Z</time></trkpt><trkpt lat="45.60875187108058" lon="8.939864668478972"><ele>218.0</ele><time>2026-04-19T08:04:02.999Z</time></trkpt><trkpt lat="45.60882699494971" lon="8.939910128744424"><ele>218.0</ele><time>2026-04-19T08:04:05.999Z</time></trkpt><trkpt lat="45.60890051955905" lon="8.939948733585963"><ele>218.00000000000003</ele><time>2026-04-19T08:04:08.999Z</time></trkpt><trkpt lat="45.608970219354575" lon="8.939994083321862"><ele>218.0</ele><time>2026-04-19T08:04:11.999Z</time></trkpt><trkpt lat="45.60903820664727" lon="8.940048912466251"><ele>218.0</ele><time>2026-04-19T08:04:15Z</time></trkpt><trkpt lat="45.609096578404696" lon="8.940086709599369"><ele>218.0</ele><time>2026-04-19T08:04:17Z</time></trkpt><trkpt lat="45.60916751658736" lon="8.94015022371606"><ele>218.00000000000003</ele><time>2026-04-19T08:04:20Z</time></trkpt><trkpt lat="45.60923432972426" lon="8.940213795534259"><ele>218.0</ele><time>2026-04-19T08:04:23Z</time></trkpt><trkpt lat="45.609298555019066" lon="8.940258853237712"><ele>218.33333333333334</ele><time>2026-04-19T08:04:26Z</time></trkpt><trkpt lat="45.60936894623356" lon="8.940331882598395"><ele>218.66666666666669</ele><time>2026-04-19T08:04:29Z</time></trkpt><trkpt lat="45.60943114284534" lon="8.940394221649896"><ele>219.0</ele><time>2026-04-19T08:04:32Z</time></trkpt><trkpt lat="45.609499381318834" lon="8.9404873436943"><ele>219.33333333333331</ele><time>2026-04-19T08:04:35Z</time></trkpt><trkpt lat="45.609559216495406" lon="8.940564511178545"><ele>219.66666666666666</ele><time>2026-04-19T08:04:38Z</time></trkpt><trkpt lat="45.60960861285436" lon="8.940643437888776"><ele>220.0</ele><time>2026-04-19T08:04:41Z</time></trkpt><trkpt lat="45.609648725176626" lon="8.94073181711996"><ele>219.99999999999997</ele><time>2026-04-19T08:04:44Z</time></trkpt><trkpt lat="45.60968692320788" lon="8.940822879167458"><ele>220.0</ele><time>2026-04-19T08:04:47Z</time></trkpt><trkpt lat="45.609733379214575" lon="8.940903303137969"><ele>220.0</ele><time>2026-04-19T08:04:50Z</time></trkpt><trkpt lat="45.60977470144489" lon="8.940993463420227"><ele>220.0</ele><time>2026-04-19T08:04:53Z</time></trkpt><trkpt lat="45.60983590316604" lon="8.941081887738791"><ele>219.99999999999997</ele><time>2026-04-19T08:04:56Z</time></trkpt><trkpt lat="45.609869958367405" lon="8.94117385382134"><ele>220.0</ele><time>2026-04-19T08:04:59Z</time></trkpt><trkpt lat="45.60990354745141" lon="8.941257799164896"><ele>219.66666666666666</ele><time>2026-04-19T08:05:02Z</time></trkpt><trkpt lat="45.60994660391743" lon="8.941355244834734"><ele>219.33333333333331</ele><time>2026-04-19T08:05:05Z</time></trkpt><trkpt lat="45.609981529064896" lon="8.94146400839405"><ele>219.0</ele><time>2026-04-19T08:05:08Z</time></trkpt><trkpt lat="45.61001937958616" lon="8.941557741908078"><ele>218.66666666666669</ele><time>2026-04-19T08:05:11Z</time></trkpt><trkpt lat="45.61006783833106" lon="8.941639250274894"><ele>218.33333333333334</ele><time>2026-04-19T08:05:14Z</time></trkpt><trkpt lat="45.610079640555334" lon="8.94174172691702"><ele>218.0</ele><time>2026-04-19T08:05:17Z</time></trkpt><trkpt lat="45.610132782748344" lon="8.941840974699685"><ele>218.00000000000003</ele><time>2026-04-19T08:05:20Z</time></trkpt><trkpt lat="45.61018170481756" lon="8.94193966221584"><ele>218.0</ele><time>2026-04-19T08:05:23Z</time></trkpt><trkpt lat="45.610232147191944" lon="8.942032401560999"><ele>218.0</ele><time>2026-04-19T08:05:26Z</time></trkpt><trkpt lat="45.610298113502935" lon="8.942099065216356"><ele>218.0</ele><time>2026-04-19T08:05:29Z</time></trkpt><trkpt lat="45.61032440996836" lon="8.942204854335083"><ele>218.00000000000003</ele><time>2026-04-19T08:05:32Z</time></trkpt><trkpt lat="45.61036249995978" lon="8.942313945527994"><ele>218.0</ele><time>2026-04-19T08:05:35Z</time></trkpt><trkpt lat="45.61039855583456" lon="8.942410467243462"><ele>218.0</ele><time>2026-04-19T08:05:38Z</time></trkpt><trkpt lat="45.61040537876949" lon="8.942504420822754"><ele>218.0</ele><time>2026-04-19T08:05:40Z</time></trkpt><trkpt lat="45.610442906196866" lon="8.942600644801685"><ele>218.0</ele><time>2026-04-19T08:05:43Z</time></trkpt><trkpt lat="45.6104827813448" lon="8.942687730612146"><ele>218.0</ele><time>2026-04-19T08:05:46Z</time></trkpt><trkpt lat="45.61050985675077" lon="8.94279067673698"><ele>218.0</ele><time>2026-04-19T08:05:49Z</time></trkpt><trkpt lat="45.61055251136924" lon="8.942879905489711"><ele>218.0</ele><time>2026-04-19T08:05:52Z</time></trkpt><trkpt lat="45.610589050354164" lon="8.942980926356892"><ele>218.0</ele><time>2026-04-19T08:05:54.999Z</time></trkpt><trkpt lat="45.610641676985146" lon="8.94307499886925"><ele>218.16666666666669</ele><time>2026-04-19T08:05:58.999Z</time></trkpt><trkpt lat="45.61067980840533" lon="8.943177431049673"><ele>218.33333333333334</ele><time>2026-04-19T08:06:01.999Z</time></trkpt><trkpt lat="45.61072919513358" lon="8.943276111727034"><ele>218.5</ele><time>2026-04-19T08:06:04.999Z</time></trkpt><trkpt lat="45.61078272708457" lon="8.943369916576943"><ele>218.66666666666669</ele><time>2026-04-19T08:06:07.999Z</time></trkpt><trkpt lat="45.610834525633535" lon="8.943468583548086"><ele>218.83333333333334</ele><time>2026-04-19T08:06:10.999Z</time></trkpt><trkpt lat="45.610876963247634" lon="8.943541652086397"><ele>219.0</ele><time>2026-04-19T08:06:13.999Z</time></trkpt><trkpt lat="45.61092343627919" lon="8.94363363155594"><ele>219.16666666666666</ele><time>2026-04-19T08:06:16.999Z</time></trkpt><trkpt lat="45.61096683733397" lon="8.943730753699116"><ele>219.33333333333331</ele><time>2026-04-19T08:06:20Z</time></trkpt><trkpt lat="45.6110270064029" lon="8.943805213089208"><ele>219.5</ele><time>2026-04-19T08:06:23Z</time></trkpt><trkpt lat="45.611078769840084" lon="8.94389380472447"><ele>219.66666666666666</ele><time>2026-04-19T08:06:26Z</time></trkpt><trkpt lat="45.61112907245442" lon="8.943986614398792"><ele>219.83333333333331</ele><time>2026-04-19T08:06:29Z</time></trkpt><trkpt lat="45.61116797068561" lon="8.944059599549808"><ele>220.0</ele><time>2026-04-19T08:06:31Z</time></trkpt><trkpt lat="45.61120078713492" lon="8.944153302828646"><ele>219.83333333333331</ele><time>2026-04-19T08:06:34Z</time></trkpt><trkpt lat="45.611248402033745" lon="8.944232224634543"><ele>219.66666666666666</ele><time>2026-04-19T08:06:37Z</time></trkpt><trkpt lat="45.61127502396934" lon="8.944317260746004"><ele>219.5</ele><time>2026-04-19T08:06:39Z</time></trkpt><trkpt lat="45.61131383885944" lon="8.944415946907068"><ele>219.33333333333331</ele><time>2026-04-19T08:06:42Z</time></trkpt><trkpt lat="45.61137445435845" lon="8.944486077082024"><ele>219.16666666666666</ele><time>2026-04-19T08:06:45Z</time></trkpt><trkpt lat="45.61141032831458" lon="8.944582097121966"><ele>219.0</ele><time>2026-04-19T08:06:48Z</time></trkpt><trkpt lat="45.61146636634391" lon="8.944686836355773"><ele>219.0</ele><time>2026-04-19T08:06:51Z</time></trkpt><trkpt lat="45.61152865972085" lon="8.944769936610275"><ele>219.0</ele><time>2026-04-19T08:06:54Z</time></trkpt><trkpt lat="45.61158033437821" lon="8.94485184766203"><ele>219.0</ele><time>2026-04-19T08:06:57Z</time></trkpt><trkpt lat="45.611626768397585" lon="8.944942140779094"><ele>219.0</ele><time>2026-04-19T08:07:00.016Z</time></trkpt><trkpt lat="45.611669719261684" lon="8.945103948944197"><ele>219.0</ele><time>2026-04-19T08:07:03Z</time></trkpt><trkpt lat="45.61171752345538" lon="8.945202969440043"><ele>219.0</ele><time>2026-04-19T08:07:06Z</time></trkpt><trkpt lat="45.61178116121506" lon="8.945240919759808"><ele>219.0</ele><time>2026-04-19T08:07:08Z</time></trkpt><trkpt lat="45.611842533115315" lon="8.94531336755205"><ele>219.0</ele><time>2026-04-19T08:07:11.017Z</time></trkpt><trkpt lat="45.61189313680745" lon="8.945410479240353"><ele>219.0</ele><time>2026-04-19T08:07:14Z</time></trkpt><trkpt lat="45.611959823709064" lon="8.945490735351559"><ele>219.0</ele><time>2026-04-19T08:07:17Z</time></trkpt><trkpt lat="45.61201875953541" lon="8.945569147891245"><ele>219.0</ele><time>2026-04-19T08:07:20Z</time></trkpt><trkpt lat="45.61206210996382" lon="8.94564287481537"><ele>219.0</ele><time>2026-04-19T08:07:23Z</time></trkpt><trkpt lat="45.612079556756285" lon="8.94575270918115"><ele>219.33333333333334</ele><time>2026-04-19T08:07:26Z</time></trkpt><trkpt lat="45.61209703033332" lon="8.945866101251863"><ele>219.66666666666669</ele><time>2026-04-19T08:07:29Z</time></trkpt><trkpt lat="45.61215775240957" lon="8.945932967500653"><ele>220.0</ele><time>2026-04-19T08:07:32Z</time></trkpt><trkpt lat="45.6122188860215" lon="8.94598941102238"><ele>220.33333333333334</ele><time>2026-04-19T08:07:35Z</time></trkpt><trkpt lat="45.61225840394225" lon="8.946090079396352"><ele>220.66666666666669</ele><time>2026-04-19T08:07:38Z</time></trkpt><trkpt lat="45.612324499869764" lon="8.946168513792333"><ele>221.0</ele><time>2026-04-19T08:07:41Z</time></trkpt><trkpt lat="45.61238279477657" lon="8.946242056393762"><ele>221.00000000000003</ele><time>2026-04-19T08:07:44Z</time></trkpt><trkpt lat="45.61241466673364" lon="8.946338906275514"><ele>221.0</ele><time>2026-04-19T08:07:47Z</time></trkpt><trkpt lat="45.612451364363444" lon="8.94641964642611"><ele>221.0</ele><time>2026-04-19T08:07:50Z</time></trkpt><trkpt lat="45.612511502613906" lon="8.946449884512488"><ele>221.0</ele><time>2026-04-19T08:07:52Z</time></trkpt><trkpt lat="45.61254404816501" lon="8.946529785283104"><ele>221.0</ele><time>2026-04-19T08:07:54Z</time></trkpt><trkpt lat="45.61259552057326" lon="8.946608496399097"><ele>221.00000000000003</ele><time>2026-04-19T08:07:57Z</time></trkpt><trkpt lat="45.6126424752843" lon="8.946696251018937"><ele>221.0</ele><time>2026-04-19T08:08:00Z</time></trkpt><trkpt lat="45.612695331942334" lon="8.946763150771625"><ele>220.83333333333334</ele><time>2026-04-19T08:08:03Z</time></trkpt><trkpt lat="45.61272741943153" lon="8.94686424648289"><ele>220.66666666666669</ele><time>2026-04-19T08:08:06Z</time></trkpt><trkpt lat="45.6127916984669" lon="8.946950024456621"><ele>220.5</ele><time>2026-04-19T08:08:10Z</time></trkpt><trkpt lat="45.61283911084437" lon="8.947030890184319"><ele>220.33333333333331</ele><time>2026-04-19T08:08:13Z</time></trkpt><trkpt lat="45.61288883744201" lon="8.94711006472868"><ele>220.16666666666666</ele><time>2026-04-19T08:08:15.999Z</time></trkpt><trkpt lat="45.612962518616456" lon="8.947162595563263"><ele>220.0</ele><time>2026-04-19T08:08:18.999Z</time></trkpt><trkpt lat="45.61301420612371" lon="8.94721608056306"><ele>219.99999999999997</ele><time>2026-04-19T08:08:21.999Z</time></trkpt><trkpt lat="45.61305184615945" lon="8.947311057832998"><ele>220.0</ele><time>2026-04-19T08:08:25Z</time></trkpt><trkpt lat="45.61308560140847" lon="8.947409079861362"><ele>220.0</ele><time>2026-04-19T08:08:28Z</time></trkpt><trkpt lat="45.61313341622246" lon="8.947485445880604"><ele>220.0</ele><time>2026-04-19T08:08:31Z</time></trkpt><trkpt lat="45.613158913401634" lon="8.947585362954035"><ele>219.99999999999997</ele><time>2026-04-19T08:08:34Z</time></trkpt><trkpt lat="45.61320732135042" lon="8.947674536771158"><ele>220.0</ele><time>2026-04-19T08:08:37Z</time></trkpt><trkpt lat="45.61326056711588" lon="8.947748959540592"><ele>219.85714285714283</ele><time>2026-04-19T08:08:40Z</time></trkpt><trkpt lat="45.61329686449363" lon="8.947824432197663"><ele>219.71428571428572</ele><time>2026-04-19T08:08:42Z</time></trkpt><trkpt lat="45.613336094063584" lon="8.947923520062727"><ele>219.57142857142856</ele><time>2026-04-19T08:08:45Z</time></trkpt><trkpt lat="45.61338672574606" lon="8.948018965740646"><ele>219.42857142857142</ele><time>2026-04-19T08:08:48Z</time></trkpt><trkpt lat="45.61342652897188" lon="8.948092112385446"><ele>219.28571428571428</ele><time>2026-04-19T08:08:51Z</time></trkpt><trkpt lat="45.61348815935715" lon="8.9481545575362"><ele>219.14285714285714</ele><time>2026-04-19T08:08:54Z</time></trkpt><trkpt lat="45.613557615388984" lon="8.948210464975944"><ele>219.0</ele><time>2026-04-19T08:08:57Z</time></trkpt><trkpt lat="45.61362135231472" lon="8.948254807142998"><ele>219.0</ele><time>2026-04-19T08:09:00Z</time></trkpt><trkpt lat="45.613648494595765" lon="8.94833795572351"><ele>219.0</ele><time>2026-04-19T08:09:02Z</time></trkpt><trkpt lat="45.61370531163748" lon="8.948415808763961"><ele>219.0</ele><time>2026-04-19T08:09:05Z</time></trkpt><trkpt lat="45.61375989342181" lon="8.948488773466794"><ele>219.0</ele><time>2026-04-19T08:09:08Z</time></trkpt><trkpt lat="45.613823757385674" lon="8.948548484149354"><ele>219.0</ele><time>2026-04-19T08:09:11Z</time></trkpt><trkpt lat="45.61389684398918" lon="8.948523393824779"><ele>219.0</ele><time>2026-04-19T08:09:14Z</time></trkpt><trkpt lat="45.61393703402151" lon="8.948453358264413"><ele>219.0</ele><time>2026-04-19T08:09:16Z</time></trkpt><trkpt lat="45.61399358081259" lon="8.948385484480669"><ele>219.0</ele><time>2026-04-19T08:09:19Z</time></trkpt><trkpt lat="45.61404341462247" lon="8.948310143769584"><ele>219.0</ele><time>2026-04-19T08:09:22Z</time></trkpt><trkpt lat="45.61408661834355" lon="8.948237527468331"><ele>219.0</ele><time>2026-04-19T08:09:24Z</time></trkpt><trkpt lat="45.61415588279976" lon="8.948172878979145"><ele>219.0</ele><time>2026-04-19T08:09:27Z</time></trkpt><trkpt lat="45.614203594228954" lon="8.948089261800806"><ele>219.0</ele><time>2026-04-19T08:09:30Z</time></trkpt><trkpt lat="45.614278889588995" lon="8.948029717645"><ele>219.0</ele><time>2026-04-19T08:09:33Z</time></trkpt><trkpt lat="45.61435370958553" lon="8.947982409679174"><ele>219.0</ele><time>2026-04-19T08:09:36Z</time></trkpt><trkpt lat="45.614417207704776" lon="8.947895763583377"><ele>219.0</ele><time>2026-04-19T08:09:40Z</time></trkpt><trkpt lat="45.6144619390022" lon="8.947799648545056"><ele>219.0</ele><time>2026-04-19T08:09:43Z</time></trkpt><trkpt lat="45.61451207524588" lon="8.947712333235753"><ele>219.0</ele><time>2026-04-19T08:09:46Z</time></trkpt><trkpt lat="45.61453070325693" lon="8.947617379935735"><ele>219.0</ele><time>2026-04-19T08:09:48Z</time></trkpt><trkpt lat="45.61457869162302" lon="8.947547216117785"><ele>219.0</ele><time>2026-04-19T08:09:51Z</time></trkpt><trkpt lat="45.61465268987166" lon="8.94746655516934"><ele>219.16666666666666</ele><time>2026-04-19T08:09:54Z</time></trkpt><trkpt lat="45.61471231942017" lon="8.94738729686458"><ele>219.33333333333331</ele><time>2026-04-19T08:09:57Z</time></trkpt><trkpt lat="45.614762720723064" lon="8.947298180696597"><ele>219.5</ele><time>2026-04-19T08:10:00Z</time></trkpt><trkpt lat="45.61483272920479" lon="8.947226000057139"><ele>219.66666666666666</ele><time>2026-04-19T08:10:03Z</time></trkpt><trkpt lat="45.61488838618255" lon="8.947141990172554"><ele>219.83333333333331</ele><time>2026-04-19T08:10:06Z</time></trkpt><trkpt lat="45.61494261146918" lon="8.947056515450699"><ele>220.0</ele><time>2026-04-19T08:10:09Z</time></trkpt><trkpt lat="45.615018687043694" lon="8.946989759808192"><ele>219.99999999999997</ele><time>2026-04-19T08:10:12Z</time></trkpt><trkpt lat="45.61505734153276" lon="8.946913675542206"><ele>220.0</ele><time>2026-04-19T08:10:15Z</time></trkpt><trkpt lat="45.6150885954453" lon="8.946795969948928"><ele>220.0</ele><time>2026-04-19T08:10:19Z</time></trkpt><trkpt lat="45.615151231304104" lon="8.946714553893141"><ele>220.0</ele><time>2026-04-19T08:10:22Z</time></trkpt><trkpt lat="45.6152222339648" lon="8.946632473095312"><ele>219.99999999999997</ele><time>2026-04-19T08:10:24.999Z</time></trkpt><trkpt lat="45.61528822826851" lon="8.946556994336897"><ele>220.0</ele><time>2026-04-19T08:10:28.999Z</time></trkpt><trkpt lat="45.61535361173857" lon="8.94648088350408"><ele>220.33333333333331</ele><time>2026-04-19T08:10:32Z</time></trkpt><trkpt lat="45.61542005167497" lon="8.94641392780786"><ele>220.66666666666666</ele><time>2026-04-19T08:10:35Z</time></trkpt><trkpt lat="45.61548320137743" lon="8.946344761346467"><ele>221.0</ele><time>2026-04-19T08:10:38Z</time></trkpt><trkpt lat="45.615546036266636" lon="8.94627835397805"><ele>221.33333333333331</ele><time>2026-04-19T08:10:41Z</time></trkpt><trkpt lat="45.61559755305817" lon="8.94620605742625"><ele>221.66666666666666</ele><time>2026-04-19T08:10:44Z</time></trkpt><trkpt lat="45.61563542936603" lon="8.946090752603219"><ele>222.0</ele><time>2026-04-19T08:10:47Z</time></trkpt><trkpt lat="45.6156385178616" lon="8.945976836827125"><ele>222.0</ele><time>2026-04-19T08:10:50Z</time></trkpt><trkpt lat="45.61558258702008" lon="8.945890970624813"><ele>222.0</ele><time>2026-04-19T08:10:53Z</time></trkpt><trkpt lat="45.61552762713075" lon="8.945790035440826"><ele>222.0</ele><time>2026-04-19T08:10:57Z</time></trkpt><trkpt lat="45.615490164400875" lon="8.94569853080177"><ele>222.0</ele><time>2026-04-19T08:11:00Z</time></trkpt><trkpt lat="45.615438203921414" lon="8.945646215734662"><ele>222.0</ele><time>2026-04-19T08:11:02Z</time></trkpt><trkpt lat="45.61538483066349" lon="8.945570372938612"><ele>222.0</ele><time>2026-04-19T08:11:05Z</time></trkpt><trkpt lat="45.61534022805083" lon="8.94547570162164"><ele>222.0</ele><time>2026-04-19T08:11:08Z</time></trkpt><trkpt lat="45.61529406984135" lon="8.945373569306836"><ele>222.0</ele><time>2026-04-19T08:11:11Z</time></trkpt><trkpt lat="45.61523988950137" lon="8.945288652308495"><ele>222.0</ele><time>2026-04-19T08:11:14Z</time></trkpt><trkpt lat="45.61518643493473" lon="8.94523954456334"><ele>222.0</ele><time>2026-04-19T08:11:16Z</time></trkpt><trkpt lat="45.6151269325654" lon="8.94514496845714"><ele>222.0</ele><time>2026-04-19T08:11:19Z</time></trkpt><trkpt lat="45.615079720676356" lon="8.945044975103572"><ele>222.0</ele><time>2026-04-19T08:11:22Z</time></trkpt><trkpt lat="45.61504044085261" lon="8.944947301858102"><ele>222.0</ele><time>2026-04-19T08:11:25Z</time></trkpt><trkpt lat="45.614989695083956" lon="8.944853315051287"><ele>222.0</ele><time>2026-04-19T08:11:28Z</time></trkpt><trkpt lat="45.61503304516491" lon="8.944784943066008"><ele>222.0</ele><time>2026-04-19T08:11:30Z</time></trkpt><trkpt lat="45.615096021285865" lon="8.944732330855485"><ele>222.0</ele><time>2026-04-19T08:11:32Z</time></trkpt><trkpt lat="45.61515057822646" lon="8.94464566402744"><ele>222.0</ele><time>2026-04-19T08:11:35Z</time></trkpt><trkpt lat="45.615218817022786" lon="8.944576217154303"><ele>222.0</ele><time>2026-04-19T08:11:38Z</time></trkpt><trkpt lat="45.61529522558903" lon="8.944499740311935"><ele>222.0</ele><time>2026-04-19T08:11:41Z</time></trkpt><trkpt lat="45.61532777123599" lon="8.944393696405978"><ele>222.0</ele><time>2026-04-19T08:11:44Z</time></trkpt><trkpt lat="45.61540275130173" lon="8.944323502884824"><ele>222.0</ele><time>2026-04-19T08:11:47Z</time></trkpt><trkpt lat="45.61545754919629" lon="8.94424246992497"><ele>222.0</ele><time>2026-04-19T08:11:50Z</time></trkpt><trkpt lat="45.615415108501686" lon="8.944172381121378"><ele>222.0</ele><time>2026-04-19T08:11:52Z</time></trkpt><trkpt lat="45.6153614187148" lon="8.944103275997154"><ele>222.0</ele><time>2026-04-19T08:11:54Z</time></trkpt><trkpt lat="45.61528749596253" lon="8.944039780916157"><ele>222.0</ele><time>2026-04-19T08:11:57Z</time></trkpt><trkpt lat="45.61523584166734" lon="8.943947443566671"><ele>222.0</ele><time>2026-04-19T08:12:00Z</time></trkpt><trkpt lat="45.61519667497624" lon="8.943840638743156"><ele>222.0</ele><time>2026-04-19T08:12:03Z</time></trkpt><trkpt lat="45.615142940551415" lon="8.94372986853004"><ele>222.0</ele><time>2026-04-19T08:12:06Z</time></trkpt><trkpt lat="45.61508684556194" lon="8.943648744321463"><ele>222.0</ele><time>2026-04-19T08:12:09Z</time></trkpt><trkpt lat="45.615019668733325" lon="8.943553564720764"><ele>222.0</ele><time>2026-04-19T08:12:12Z</time></trkpt><trkpt lat="45.61497907570463" lon="8.94345045161983"><ele>222.0</ele><time>2026-04-19T08:12:15Z</time></trkpt><trkpt lat="45.61492520417794" lon="8.94335731854206"><ele>222.0</ele><time>2026-04-19T08:12:18Z</time></trkpt><trkpt lat="45.61487730238125" lon="8.943296111520361"><ele>222.0</ele><time>2026-04-19T08:12:20Z</time></trkpt><trkpt lat="45.61484325426782" lon="8.943207851856107"><ele>222.0</ele><time>2026-04-19T08:12:23Z</time></trkpt><trkpt lat="45.614785042339925" lon="8.943105900973732"><ele>222.0</ele><time>2026-04-19T08:12:25.999Z</time></trkpt><trkpt lat="45.61474747731491" lon="8.943030401356957"><ele>222.0</ele><time>2026-04-19T08:12:27.999Z</time></trkpt><trkpt lat="45.61470234366184" lon="8.942927923900694"><ele>222.0</ele><time>2026-04-19T08:12:30.999Z</time></trkpt><trkpt lat="45.61466691294257" lon="8.942845980204911"><ele>222.0</ele><time>2026-04-19T08:12:32.999Z</time></trkpt><trkpt lat="45.614621859324075" lon="8.94274111158515"><ele>222.0</ele><time>2026-04-19T08:12:35.999Z</time></trkpt><trkpt lat="45.614631312982986" lon="8.942616741241379"><ele>222.0</ele><time>2026-04-19T08:12:39Z</time></trkpt><trkpt lat="45.6147142170475" lon="8.942547173817076"><ele>222.0</ele><time>2026-04-19T08:12:42Z</time></trkpt><trkpt lat="45.61476930587533" lon="8.942454801348925"><ele>222.0</ele><time>2026-04-19T08:12:46Z</time></trkpt><trkpt lat="45.614818887245924" lon="8.942381313633218"><ele>222.0</ele><time>2026-04-19T08:12:49Z</time></trkpt><trkpt lat="45.61488607605095" lon="8.942335556183131"><ele>222.0</ele><time>2026-04-19T08:12:52Z</time></trkpt><trkpt lat="45.61494018395416" lon="8.942254573477602"><ele>222.0</ele><time>2026-04-19T08:12:55Z</time></trkpt><trkpt lat="45.614980889072925" lon="8.9421822119159"><ele>222.0</ele><time>2026-04-19T08:12:58Z</time></trkpt><trkpt lat="45.615024350171396" lon="8.942110923714544"><ele>222.0</ele><time>2026-04-19T08:13:01Z</time></trkpt><trkpt lat="45.6151068903506" lon="8.942074824305736"><ele>222.0</ele><time>2026-04-19T08:13:04Z</time></trkpt><trkpt lat="45.61515546219871" lon="8.9420091072845"><ele>222.0</ele><time>2026-04-19T08:13:07Z</time></trkpt><trkpt lat="45.61519688641899" lon="8.941923924652606"><ele>222.0</ele><time>2026-04-19T08:13:10Z</time></trkpt><trkpt lat="45.615269746978484" lon="8.941872134191662"><ele>222.0</ele><time>2026-04-19T08:13:13Z</time></trkpt><trkpt lat="45.61531909619072" lon="8.941815862793499"><ele>222.0</ele><time>2026-04-19T08:13:15Z</time></trkpt><trkpt lat="45.61537659813109" lon="8.941748237407802"><ele>222.0</ele><time>2026-04-19T08:13:18Z</time></trkpt><trkpt lat="45.61545216965081" lon="8.941692883250449"><ele>222.0</ele><time>2026-04-19T08:13:21Z</time></trkpt><trkpt lat="45.61553426427889" lon="8.941683379836826"><ele>222.0</ele><time>2026-04-19T08:13:25Z</time></trkpt><trkpt lat="45.61557463429277" lon="8.941755846688464"><ele>222.0</ele><time>2026-04-19T08:13:28Z</time></trkpt><trkpt lat="45.615614214833805" lon="8.941837241216628"><ele>222.0</ele><time>2026-04-19T08:13:31Z</time></trkpt><trkpt lat="45.615667523165214" lon="8.941908463128266"><ele>222.0</ele><time>2026-04-19T08:13:34Z</time></trkpt><trkpt lat="45.61571789926399" lon="8.941987832451169"><ele>222.0</ele><time>2026-04-19T08:13:37Z</time></trkpt><trkpt lat="45.61577507618644" lon="8.942054643738738"><ele>222.0</ele><time>2026-04-19T08:13:40Z</time></trkpt><trkpt lat="45.61582364767145" lon="8.94212654186446"><ele>222.0</ele><time>2026-04-19T08:13:43Z</time></trkpt><trkpt lat="45.61588304275532" lon="8.942182156410832"><ele>222.0</ele><time>2026-04-19T08:13:46Z</time></trkpt><trkpt lat="45.61592872078415" lon="8.942285080321456"><ele>222.0</ele><time>2026-04-19T08:13:49Z</time></trkpt><trkpt lat="45.61596842822089" lon="8.942367083220597"><ele>222.0</ele><time>2026-04-19T08:13:52Z</time></trkpt><trkpt lat="45.6160275957712" lon="8.942467189677757"><ele>222.0</ele><time>2026-04-19T08:13:55Z</time></trkpt><trkpt lat="45.61607802669701" lon="8.94253569628081"><ele>222.0</ele><time>2026-04-19T08:13:58Z</time></trkpt><trkpt lat="45.61613525610343" lon="8.942613248317459"><ele>222.0</ele><time>2026-04-19T08:14:01Z</time></trkpt><trkpt lat="45.61618704197488" lon="8.942704153711276"><ele>222.0</ele><time>2026-04-19T08:14:04Z</time></trkpt><trkpt lat="45.61623270437949" lon="8.942776960680586"><ele>222.0</ele><time>2026-04-19T08:14:07Z</time></trkpt><trkpt lat="45.61627316470162" lon="8.942854049906785"><ele>222.0</ele><time>2026-04-19T08:14:10Z</time></trkpt><trkpt lat="45.61633465880916" lon="8.942927209566731"><ele>222.0</ele><time>2026-04-19T08:14:13Z</time></trkpt><trkpt lat="45.61641420385835" lon="8.942892889750755"><ele>222.0</ele><time>2026-04-19T08:14:16Z</time></trkpt><trkpt lat="45.61646663687195" lon="8.942811346923207"><ele>222.0</ele><time>2026-04-19T08:14:19Z</time></trkpt><trkpt lat="45.616526841661035" lon="8.942751282390297"><ele>222.0</ele><time>2026-04-19T08:14:22Z</time></trkpt><trkpt lat="45.616579100945685" lon="8.942675664070569"><ele>222.0</ele><time>2026-04-19T08:14:25Z</time></trkpt><trkpt lat="45.61663186959507" lon="8.942578336650595"><ele>222.0</ele><time>2026-04-19T08:14:28Z</time></trkpt><trkpt lat="45.616690244404204" lon="8.94251161151723"><ele>222.0</ele><time>2026-04-19T08:14:31Z</time></trkpt><trkpt lat="45.61674867450353" lon="8.942447526364928"><ele>222.0</ele><time>2026-04-19T08:14:34Z</time></trkpt><trkpt lat="45.61679655953431" lon="8.942362998288713"><ele>222.0</ele><time>2026-04-19T08:14:37Z</time></trkpt><trkpt lat="45.61687003910959" lon="8.942308148853208"><ele>222.0</ele><time>2026-04-19T08:14:40Z</time></trkpt><trkpt lat="45.6169294267343" lon="8.942221048728895"><ele>222.16666666666666</ele><time>2026-04-19T08:14:43Z</time></trkpt><trkpt lat="45.61700127160078" lon="8.942153616225218"><ele>222.33333333333331</ele><time>2026-04-19T08:14:46Z</time></trkpt><trkpt lat="45.61704734529669" lon="8.942080129091952"><ele>222.5</ele><time>2026-04-19T08:14:48Z</time></trkpt><trkpt lat="45.61709003339885" lon="8.94200292021437"><ele>222.66666666666666</ele><time>2026-04-19T08:14:51Z</time></trkpt><trkpt lat="45.61715373406384" lon="8.941916772335835"><ele>222.83333333333331</ele><time>2026-04-19T08:14:54Z</time></trkpt><trkpt lat="45.61722362126498" lon="8.941831413727131"><ele>223.0</ele><time>2026-04-19T08:14:57Z</time></trkpt><trkpt lat="45.617240704858936" lon="8.941725851379601"><ele>222.99999999999997</ele><time>2026-04-19T08:15:00Z</time></trkpt><trkpt lat="45.61731548634095" lon="8.941654299041781"><ele>223.0</ele><time>2026-04-19T08:15:03Z</time></trkpt><trkpt lat="45.61739290510398" lon="8.941645812205415"><ele>223.0</ele><time>2026-04-19T08:15:06Z</time></trkpt><trkpt lat="45.617482415526986" lon="8.941697899373874"><ele>223.0</ele><time>2026-04-19T08:15:09Z</time></trkpt><trkpt lat="45.61755072809784" lon="8.941701855075102"><ele>222.99999999999997</ele><time>2026-04-19T08:15:12Z</time></trkpt><trkpt lat="45.61763538192161" lon="8.941717022312154"><ele>223.0</ele><time>2026-04-19T08:15:15Z</time></trkpt><trkpt lat="45.61770968897186" lon="8.94172895979732"><ele>222.99999999999997</ele><time>2026-04-19T08:15:18Z</time></trkpt><trkpt lat="45.61778481009934" lon="8.941763857242517"><ele>223.0</ele><time>2026-04-19T08:15:21Z</time></trkpt><trkpt lat="45.61784838179011" lon="8.941728296194457"><ele>223.0</ele><time>2026-04-19T08:15:23Z</time></trkpt><trkpt lat="45.61792067654131" lon="8.94175582296209"><ele>223.0</ele><time>2026-04-19T08:15:26Z</time></trkpt><trkpt lat="45.61801268614312" lon="8.941774373055342"><ele>222.99999999999997</ele><time>2026-04-19T08:15:29Z</time></trkpt><trkpt lat="45.61808881520035" lon="8.94178125157707"><ele>223.0</ele><time>2026-04-19T08:15:32Z</time></trkpt><trkpt lat="45.61817014826281" lon="8.941811299375619"><ele>223.16666666666666</ele><time>2026-04-19T08:15:35Z</time></trkpt><trkpt lat="45.618250677936885" lon="8.941833423228147"><ele>223.33333333333331</ele><time>2026-04-19T08:15:38Z</time></trkpt><trkpt lat="45.618331016223564" lon="8.941846123404385"><ele>223.5</ele><time>2026-04-19T08:15:41Z</time></trkpt><trkpt lat="45.618415229794245" lon="8.941858862399629"><ele>223.66666666666669</ele><time>2026-04-19T08:15:44Z</time></trkpt><trkpt lat="45.61849853003248" lon="8.941857729915101"><ele>223.83333333333334</ele><time>2026-04-19T08:15:47Z</time></trkpt><trkpt lat="45.6185819416576" lon="8.941861456335541"><ele>224.0</ele><time>2026-04-19T08:15:50Z</time></trkpt><trkpt lat="45.61864437532395" lon="8.94187771710095"><ele>224.16666666666669</ele><time>2026-04-19T08:15:52Z</time></trkpt><trkpt lat="45.61872878070336" lon="8.941874095149933"><ele>224.33333333333334</ele><time>2026-04-19T08:15:55Z</time></trkpt><trkpt lat="45.618802417629446" lon="8.941829463824329"><ele>224.5</ele><time>2026-04-19T08:15:57Z</time></trkpt><trkpt lat="45.61885154967069" lon="8.94174606143006"><ele>224.66666666666669</ele><time>2026-04-19T08:16:00Z</time></trkpt><trkpt lat="45.61891724043637" lon="8.941656292003534"><ele>224.83333333333334</ele><time>2026-04-19T08:16:03Z</time></trkpt><trkpt lat="45.618958879909094" lon="8.941552809938054"><ele>225.0</ele><time>2026-04-19T08:16:06Z</time></trkpt><trkpt lat="45.61896317772124" lon="8.941460745466651"><ele>224.66666666666666</ele><time>2026-04-19T08:16:08Z</time></trkpt><trkpt lat="45.61894318153185" lon="8.941372472898651"><ele>224.33333333333331</ele><time>2026-04-19T08:16:10Z</time></trkpt><trkpt lat="45.61893027967884" lon="8.94125060201028"><ele>224.0</ele><time>2026-04-19T08:16:13Z</time></trkpt><trkpt lat="45.61892217156308" lon="8.941129460683385"><ele>223.66666666666666</ele><time>2026-04-19T08:16:16Z</time></trkpt><trkpt lat="45.61892675681365" lon="8.941031727444946"><ele>223.33333333333331</ele><time>2026-04-19T08:16:18Z</time></trkpt><trkpt lat="45.61890577628656" lon="8.940909639073578"><ele>223.0</ele><time>2026-04-19T08:16:21Z</time></trkpt><trkpt lat="45.61887480687463" lon="8.940795820223649"><ele>222.66666666666666</ele><time>2026-04-19T08:16:24Z</time></trkpt><trkpt lat="45.61886948762077" lon="8.940673365432009"><ele>222.33333333333331</ele><time>2026-04-19T08:16:27Z</time></trkpt><trkpt lat="45.618861885138685" lon="8.94054936109956"><ele>222.0</ele><time>2026-04-19T08:16:30Z</time></trkpt><trkpt lat="45.61884613671732" lon="8.940458587008147"><ele>221.66666666666669</ele><time>2026-04-19T08:16:32Z</time></trkpt><trkpt lat="45.61882367328756" lon="8.940374257313339"><ele>221.33333333333334</ele><time>2026-04-19T08:16:34Z</time></trkpt><trkpt lat="45.618812413817345" lon="8.940242753004751"><ele>221.0</ele><time>2026-04-19T08:16:37Z</time></trkpt><trkpt lat="45.6188150363966" lon="8.94015262088619"><ele>221.83333333333334</ele><time>2026-04-19T08:16:39Z</time></trkpt><trkpt lat="45.618796331053176" lon="8.940045237635475"><ele>222.66666666666669</ele><time>2026-04-19T08:16:42Z</time></trkpt><trkpt lat="45.61878901817156" lon="8.93993396742853"><ele>223.5</ele><time>2026-04-19T08:16:45Z</time></trkpt><trkpt lat="45.61877773616676" lon="8.93981871566114"><ele>224.33333333333331</ele><time>2026-04-19T08:16:48Z</time></trkpt><trkpt lat="45.618753060100076" lon="8.939705588164427"><ele>225.16666666666666</ele><time>2026-04-19T08:16:51Z</time></trkpt><trkpt lat="45.61874045322965" lon="8.939602718401959"><ele>226.0</ele><time>2026-04-19T08:16:54Z</time></trkpt><trkpt lat="45.61871690110232" lon="8.93950515556448"><ele>225.99999999999997</ele><time>2026-04-19T08:16:57Z</time></trkpt><trkpt lat="45.618710236872296" lon="8.939382615091974"><ele>226.0</ele><time>2026-04-19T08:17:00Z</time></trkpt><trkpt lat="45.618694933484704" lon="8.939278901537326"><ele>226.0</ele><time>2026-04-19T08:17:03Z</time></trkpt><trkpt lat="45.61868949268478" lon="8.93916484329052"><ele>226.0</ele><time>2026-04-19T08:17:06Z</time></trkpt><trkpt lat="45.61867051696652" lon="8.939056726168518"><ele>225.99999999999997</ele><time>2026-04-19T08:17:09Z</time></trkpt><trkpt lat="45.6186612486881" lon="8.938951293679045"><ele>226.0</ele><time>2026-04-19T08:17:12Z</time></trkpt><trkpt lat="45.618645661735094" lon="8.938840693272853"><ele>225.99999999999997</ele><time>2026-04-19T08:17:15Z</time></trkpt><trkpt lat="45.618655312412784" lon="8.938732698199516"><ele>226.0</ele><time>2026-04-19T08:17:18Z</time></trkpt><trkpt lat="45.61864729208901" lon="8.938623513079257"><ele>226.0</ele><time>2026-04-19T08:17:21Z</time></trkpt><trkpt lat="45.61863476810195" lon="8.93852068569462"><ele>226.0</ele><time>2026-04-19T08:17:24Z</time></trkpt><trkpt lat="45.61858245740086" lon="8.938428105081869"><ele>225.99999999999997</ele><time>2026-04-19T08:17:27Z</time></trkpt><trkpt lat="45.618580898526154" lon="8.938325253132133"><ele>226.0</ele><time>2026-04-19T08:17:29Z</time></trkpt><trkpt lat="45.61853496499253" lon="8.93821606715651"><ele>226.16666666666666</ele><time>2026-04-19T08:17:32Z</time></trkpt><trkpt lat="45.61850454635494" lon="8.938098680858156"><ele>226.33333333333331</ele><time>2026-04-19T08:17:35Z</time></trkpt><trkpt lat="45.61846904316776" lon="8.938010035384664"><ele>226.5</ele><time>2026-04-19T08:17:38Z</time></trkpt><trkpt lat="45.61842374284952" lon="8.93790518384955"><ele>226.66666666666669</ele><time>2026-04-19T08:17:41Z</time></trkpt><trkpt lat="45.61839998282941" lon="8.937821825801798"><ele>226.83333333333334</ele><time>2026-04-19T08:17:44Z</time></trkpt><trkpt lat="45.61836361435801" lon="8.937734274881624"><ele>227.0</ele><time>2026-04-19T08:17:47Z</time></trkpt><trkpt lat="45.618331545806655" lon="8.93761487086711"><ele>226.83333333333334</ele><time>2026-04-19T08:17:50Z</time></trkpt><trkpt lat="45.618302032149344" lon="8.937507991477595"><ele>226.66666666666669</ele><time>2026-04-19T08:17:53Z</time></trkpt><trkpt lat="45.61825226485344" lon="8.937411531565893"><ele>226.5</ele><time>2026-04-19T08:17:56Z</time></trkpt><trkpt lat="45.61821661957455" lon="8.937311206120333"><ele>226.33333333333331</ele><time>2026-04-19T08:17:59Z</time></trkpt><trkpt lat="45.618166688938196" lon="8.937230371395389"><ele>226.16666666666666</ele><time>2026-04-19T08:18:02Z</time></trkpt><trkpt lat="45.61813534864551" lon="8.937130845120128"><ele>226.0</ele><time>2026-04-19T08:18:04.999Z</time></trkpt><trkpt lat="45.61810278061808" lon="8.937023699632281"><ele>225.99999999999997</ele><time>2026-04-19T08:18:07.999Z</time></trkpt><trkpt lat="45.61806548503254" lon="8.93691643853644"><ele>226.0</ele><time>2026-04-19T08:18:10.999Z</time></trkpt><trkpt lat="45.61800112074328" lon="8.936834119208532"><ele>226.0</ele><time>2026-04-19T08:18:13.999Z</time></trkpt><trkpt lat="45.61796083912036" lon="8.936725194541829"><ele>226.0</ele><time>2026-04-19T08:18:16.999Z</time></trkpt><trkpt lat="45.6179153604681" lon="8.936635150628046"><ele>225.99999999999997</ele><time>2026-04-19T08:18:19.999Z</time></trkpt><trkpt lat="45.61788824997789" lon="8.93653884478593"><ele>226.0</ele><time>2026-04-19T08:18:22.999Z</time></trkpt><trkpt lat="45.617841898902626" lon="8.936456839957295"><ele>225.66666666666666</ele><time>2026-04-19T08:18:25.999Z</time></trkpt><trkpt lat="45.61781465231355" lon="8.936342250583197"><ele>225.33333333333331</ele><time>2026-04-19T08:18:28.999Z</time></trkpt><trkpt lat="45.617800543602016" lon="8.936253577781152"><ele>225.0</ele><time>2026-04-19T08:18:30.999Z</time></trkpt><trkpt lat="45.617748492633396" lon="8.93616533867961"><ele>224.66666666666669</ele><time>2026-04-19T08:18:33.999Z</time></trkpt><trkpt lat="45.617694352037205" lon="8.93607968385687"><ele>224.33333333333334</ele><time>2026-04-19T08:18:36.999Z</time></trkpt><trkpt lat="45.61764824265148" lon="8.935975857488302"><ele>224.0</ele><time>2026-04-19T08:18:39.999Z</time></trkpt><trkpt lat="45.61759066683537" lon="8.935886661998506"><ele>224.00000000000003</ele><time>2026-04-19T08:18:42.999Z</time></trkpt><trkpt lat="45.61756332796353" lon="8.935795127095465"><ele>224.0</ele><time>2026-04-19T08:18:44.999Z</time></trkpt><trkpt lat="45.61750398501272" lon="8.935694303862066"><ele>224.0</ele><time>2026-04-19T08:18:47.999Z</time></trkpt><trkpt lat="45.6174652505357" lon="8.935590058940978"><ele>224.0</ele><time>2026-04-19T08:18:50.999Z</time></trkpt><trkpt lat="45.6174355685089" lon="8.935467157550155"><ele>224.00000000000003</ele><time>2026-04-19T08:18:53.999Z</time></trkpt><trkpt lat="45.61739831455053" lon="8.935394088943598"><ele>224.0</ele><time>2026-04-19T08:18:56Z</time></trkpt><trkpt lat="45.617360213109805" lon="8.93528110904143"><ele>224.00000000000003</ele><time>2026-04-19T08:18:59Z</time></trkpt><trkpt lat="45.617304583188556" lon="8.935175515099111"><ele>224.0</ele><time>2026-04-19T08:19:02Z</time></trkpt><trkpt lat="45.61725839130284" lon="8.935104478603114"><ele>224.0</ele><time>2026-04-19T08:19:04Z</time></trkpt><trkpt lat="45.61723320944125" lon="8.934988708958494"><ele>224.0</ele><time>2026-04-19T08:19:07Z</time></trkpt><trkpt lat="45.617169024470556" lon="8.934902742528882"><ele>224.00000000000003</ele><time>2026-04-19T08:19:10Z</time></trkpt><trkpt lat="45.61711279095202" lon="8.934822832485795"><ele>224.0</ele><time>2026-04-19T08:19:13Z</time></trkpt><trkpt lat="45.617066761017476" lon="8.934760462489397"><ele>224.16666666666669</ele><time>2026-04-19T08:19:15Z</time></trkpt><trkpt lat="45.61699835710898" lon="8.934668845213093"><ele>224.33333333333334</ele><time>2026-04-19T08:19:18Z</time></trkpt><trkpt lat="45.616961148662156" lon="8.93454362324095"><ele>224.5</ele><time>2026-04-19T08:19:21Z</time></trkpt><trkpt lat="45.61694046916416" lon="8.934457028968668"><ele>224.66666666666669</ele><time>2026-04-19T08:19:23Z</time></trkpt><trkpt lat="45.616907027355616" lon="8.934353344294841"><ele>224.83333333333334</ele><time>2026-04-19T08:19:26Z</time></trkpt><trkpt lat="45.616888423030616" lon="8.934259972223812"><ele>225.0</ele><time>2026-04-19T08:19:28Z</time></trkpt><trkpt lat="45.616865624362894" lon="8.934139270795031"><ele>225.0</ele><time>2026-04-19T08:19:31Z</time></trkpt><trkpt lat="45.61691410980845" lon="8.934021494591192"><ele>225.0</ele><time>2026-04-19T08:19:34Z</time></trkpt><trkpt lat="45.61699314091234" lon="8.93400970173196"><ele>225.0</ele><time>2026-04-19T08:19:37Z</time></trkpt><trkpt lat="45.61704580012256" lon="8.934094704688793"><ele>225.0</ele><time>2026-04-19T08:19:39Z</time></trkpt><trkpt lat="45.617020919455086" lon="8.93419329254768"><ele>225.0</ele><time>2026-04-19T08:19:41Z</time></trkpt><trkpt lat="45.61702520980574" lon="8.934315621240668"><ele>225.0</ele><time>2026-04-19T08:19:44Z</time></trkpt><trkpt lat="45.6170617696617" lon="8.9344353663636"><ele>225.0</ele><time>2026-04-19T08:19:47Z</time></trkpt><trkpt lat="45.61710882022745" lon="8.9345351664663"><ele>225.0</ele><time>2026-04-19T08:19:50Z</time></trkpt><trkpt lat="45.61715544718257" lon="8.934639539581049"><ele>225.0</ele><time>2026-04-19T08:19:53Z</time></trkpt><trkpt lat="45.61720353988265" lon="8.93474810786955"><ele>225.0</ele><time>2026-04-19T08:19:56Z</time></trkpt><trkpt lat="45.61723142397007" lon="8.934862244232763"><ele>225.0</ele><time>2026-04-19T08:19:59Z</time></trkpt><trkpt lat="45.61726018488551" lon="8.934951260113841"><ele>225.0</ele><time>2026-04-19T08:20:01Z</time></trkpt><trkpt lat="45.617295972447565" lon="8.935032095011087"><ele>224.83333333333334</ele><time>2026-04-19T08:20:03Z</time></trkpt><trkpt lat="45.617346803093504" lon="8.93513560357137"><ele>224.66666666666669</ele><time>2026-04-19T08:20:06Z</time></trkpt><trkpt lat="45.61739694016259" lon="8.935246292494787"><ele>224.5</ele><time>2026-04-19T08:20:09Z</time></trkpt><trkpt lat="45.617429999496174" lon="8.935362172488222"><ele>224.33333333333334</ele><time>2026-04-19T08:20:12Z</time></trkpt><trkpt lat="45.617472176230144" lon="8.935469566023656"><ele>224.16666666666669</ele><time>2026-04-19T08:20:15Z</time></trkpt><trkpt lat="45.61751714380882" lon="8.935556691316563"><ele>224.0</ele><time>2026-04-19T08:20:18Z</time></trkpt><trkpt lat="45.61756498871152" lon="8.935658281855712"><ele>224.00000000000003</ele><time>2026-04-19T08:20:21Z</time></trkpt><trkpt lat="45.61761698859312" lon="8.935765653883536"><ele>224.0</ele><time>2026-04-19T08:20:24Z</time></trkpt><trkpt lat="45.617677530704135" lon="8.935855504461454"><ele>224.0</ele><time>2026-04-19T08:20:27Z</time></trkpt><trkpt lat="45.617726486555135" lon="8.93595441475523"><ele>224.0</ele><time>2026-04-19T08:20:30Z</time></trkpt><trkpt lat="45.61777669791095" lon="8.936011293013564"><ele>224.00000000000003</ele><time>2026-04-19T08:20:32Z</time></trkpt><trkpt lat="45.61781534047664" lon="8.93610601986266"><ele>224.0</ele><time>2026-04-19T08:20:34Z</time></trkpt><trkpt lat="45.617846967898416" lon="8.936212599255931"><ele>224.00000000000003</ele><time>2026-04-19T08:20:37Z</time></trkpt><trkpt lat="45.61789333498198" lon="8.93631836866727"><ele>224.0</ele><time>2026-04-19T08:20:40Z</time></trkpt><trkpt lat="45.617945093159676" lon="8.936405326929213"><ele>224.0</ele><time>2026-04-19T08:20:43Z</time></trkpt><trkpt lat="45.617959982234495" lon="8.93652623143454"><ele>224.0</ele><time>2026-04-19T08:20:46Z</time></trkpt><trkpt lat="45.61800432941388" lon="8.936623858250764"><ele>224.00000000000003</ele><time>2026-04-19T08:20:49Z</time></trkpt><trkpt lat="45.61804021477897" lon="8.93670989152637"><ele>224.0</ele><time>2026-04-19T08:20:52Z</time></trkpt><trkpt lat="45.61808590728411" lon="8.93680522304749"><ele>224.33333333333334</ele><time>2026-04-19T08:20:55Z</time></trkpt><trkpt lat="45.618132162785926" lon="8.936901845785105"><ele>224.66666666666669</ele><time>2026-04-19T08:20:58Z</time></trkpt><trkpt lat="45.61816853479875" lon="8.937006760223975"><ele>225.0</ele><time>2026-04-19T08:21:01Z</time></trkpt><trkpt lat="45.618204258342956" lon="8.937110275058815"><ele>225.33333333333331</ele><time>2026-04-19T08:21:04Z</time></trkpt><trkpt lat="45.61824295144829" lon="8.937218647646235"><ele>225.66666666666666</ele><time>2026-04-19T08:21:07Z</time></trkpt><trkpt lat="45.61826775414481" lon="8.937322714948918"><ele>226.0</ele><time>2026-04-19T08:21:10Z</time></trkpt><trkpt lat="45.61830153964511" lon="8.937402352245503"><ele>225.99999999999997</ele><time>2026-04-19T08:21:13Z</time></trkpt><trkpt lat="45.61835197312749" lon="8.937476307106856"><ele>226.0</ele><time>2026-04-19T08:21:16Z</time></trkpt><trkpt lat="45.61841798154437" lon="8.937544967535763"><ele>226.0</ele><time>2026-04-19T08:21:19Z</time></trkpt><trkpt lat="45.618444339455856" lon="8.937636198102803"><ele>226.0</ele><time>2026-04-19T08:21:22Z</time></trkpt><trkpt lat="45.61849791069215" lon="8.937717542425426"><ele>225.99999999999997</ele><time>2026-04-19T08:21:25Z</time></trkpt><trkpt lat="45.61852372697702" lon="8.937815937098977"><ele>226.0</ele><time>2026-04-19T08:21:28Z</time></trkpt><trkpt lat="45.61859089918714" lon="8.937882608946975"><ele>226.0</ele><time>2026-04-19T08:21:31Z</time></trkpt><trkpt lat="45.61860534706129" lon="8.937994983100348"><ele>226.0</ele><time>2026-04-19T08:21:34Z</time></trkpt><trkpt lat="45.618625317148165" lon="8.938107600607696"><ele>226.0</ele><time>2026-04-19T08:21:37Z</time></trkpt><trkpt lat="45.61864098571341" lon="8.938199379735542"><ele>226.0</ele><time>2026-04-19T08:21:40Z</time></trkpt><trkpt lat="45.6186465737708" lon="8.938298267966724"><ele>226.0</ele><time>2026-04-19T08:21:43Z</time></trkpt><trkpt lat="45.618669045348206" lon="8.938385297253795"><ele>226.0</ele><time>2026-04-19T08:21:46Z</time></trkpt><trkpt lat="45.61869866363612" lon="8.93847741128598"><ele>226.0</ele><time>2026-04-19T08:21:49Z</time></trkpt><trkpt lat="45.61873410128455" lon="8.93856514927411"><ele>225.99999999999997</ele><time>2026-04-19T08:21:52Z</time></trkpt><trkpt lat="45.618715864336345" lon="8.938660857413506"><ele>226.0</ele><time>2026-04-19T08:21:54Z</time></trkpt><trkpt lat="45.61873752692877" lon="8.938774171074972"><ele>226.0</ele><time>2026-04-19T08:21:57Z</time></trkpt><trkpt lat="45.61873877126098" lon="8.93890266837984"><ele>226.0</ele><time>2026-04-19T08:22:00Z</time></trkpt><trkpt lat="45.61875303300735" lon="8.939008480389576"><ele>225.99999999999997</ele><time>2026-04-19T08:22:03Z</time></trkpt><trkpt lat="45.61877134263544" lon="8.939112979417521"><ele>226.0</ele><time>2026-04-19T08:22:06Z</time></trkpt><trkpt lat="45.61877327298283" lon="8.939237247174106"><ele>225.99999999999997</ele><time>2026-04-19T08:22:09Z</time></trkpt><trkpt lat="45.618788410456865" lon="8.939334457390828"><ele>226.0</ele><time>2026-04-19T08:22:12Z</time></trkpt><trkpt lat="45.61879078827853" lon="8.939442793465114"><ele>226.0</ele><time>2026-04-19T08:22:15Z</time></trkpt><trkpt lat="45.618797817391325" lon="8.939546397202806"><ele>226.0</ele><time>2026-04-19T08:22:18Z</time></trkpt><trkpt lat="45.61879938897884" lon="8.93967098143224"><ele>225.99999999999997</ele><time>2026-04-19T08:22:21Z</time></trkpt><trkpt lat="45.618819709019256" lon="8.939773743090328"><ele>226.0</ele><time>2026-04-19T08:22:24Z</time></trkpt><trkpt lat="45.61883208179445" lon="8.93987245093904"><ele>225.99999999999997</ele><time>2026-04-19T08:22:27Z</time></trkpt><trkpt lat="45.61884784371398" lon="8.939978762516363"><ele>226.0</ele><time>2026-04-19T08:22:30Z</time></trkpt><trkpt lat="45.61884362318442" lon="8.94006959000535"><ele>226.0</ele><time>2026-04-19T08:22:32Z</time></trkpt><trkpt lat="45.6188604949098" lon="8.940180338170492"><ele>226.0</ele><time>2026-04-19T08:22:35Z</time></trkpt><trkpt lat="45.61888135027197" lon="8.940298785256719"><ele>225.99999999999997</ele><time>2026-04-19T08:22:38Z</time></trkpt><trkpt lat="45.61890189940866" lon="8.940416623324875"><ele>226.0</ele><time>2026-04-19T08:22:41Z</time></trkpt><trkpt lat="45.61890531579152" lon="8.940535916397975"><ele>225.49999999999997</ele><time>2026-04-19T08:22:44Z</time></trkpt><trkpt lat="45.61892820744462" lon="8.940658960543987"><ele>225.0</ele><time>2026-04-19T08:22:47Z</time></trkpt><trkpt lat="45.61894894734377" lon="8.940786693805766"><ele>224.5</ele><time>2026-04-19T08:22:50Z</time></trkpt><trkpt lat="45.618960405736935" lon="8.940898822703542"><ele>224.0</ele><time>2026-04-19T08:22:53Z</time></trkpt><trkpt lat="45.618974488192364" lon="8.941007342898644"><ele>223.49999999999997</ele><time>2026-04-19T08:22:56Z</time></trkpt><trkpt lat="45.61898306576061" lon="8.941121242310029"><ele>223.0</ele><time>2026-04-19T08:22:59Z</time></trkpt><trkpt lat="45.6189587873019" lon="8.941207030597683"><ele>222.99999999999997</ele><time>2026-04-19T08:23:01Z</time></trkpt><trkpt lat="45.618956007655285" lon="8.94133965193951"><ele>223.0</ele><time>2026-04-19T08:23:04Z</time></trkpt><trkpt lat="45.61896022859136" lon="8.941458239103627"><ele>223.0</ele><time>2026-04-19T08:23:07Z</time></trkpt><trkpt lat="45.618952570147016" lon="8.941585845489069"><ele>223.0</ele><time>2026-04-19T08:23:10Z</time></trkpt><trkpt lat="45.61890288679938" lon="8.941697831416004"><ele>222.99999999999997</ele><time>2026-04-19T08:23:13Z</time></trkpt><trkpt lat="45.61884330953871" lon="8.941794596280277"><ele>223.0</ele><time>2026-04-19T08:23:16Z</time></trkpt><trkpt lat="45.618819352740864" lon="8.941917259615055"><ele>223.33333333333331</ele><time>2026-04-19T08:23:19Z</time></trkpt><trkpt lat="45.61887876182251" lon="8.942015990706702"><ele>223.66666666666666</ele><time>2026-04-19T08:23:22Z</time></trkpt><trkpt lat="45.6189426477201" lon="8.942038879862222"><ele>224.0</ele><time>2026-04-19T08:23:24Z</time></trkpt><trkpt lat="45.61902964478404" lon="8.94206583146465"><ele>224.33333333333331</ele><time>2026-04-19T08:23:27Z</time></trkpt><trkpt lat="45.6191200531059" lon="8.942050818995797"><ele>224.66666666666666</ele><time>2026-04-19T08:23:30Z</time></trkpt><trkpt lat="45.61918849357781" lon="8.942091808341065"><ele>225.0</ele><time>2026-04-19T08:23:33Z</time></trkpt><trkpt lat="45.61925784071156" lon="8.942112154726754"><ele>225.0</ele><time>2026-04-19T08:23:36Z</time></trkpt><trkpt lat="45.61933871281189" lon="8.94212396141525"><ele>225.0</ele><time>2026-04-19T08:23:39Z</time></trkpt><trkpt lat="45.61942793499891" lon="8.94214459128607"><ele>225.0</ele><time>2026-04-19T08:23:42Z</time></trkpt><trkpt lat="45.619516218107435" lon="8.942141060816873"><ele>225.0</ele><time>2026-04-19T08:23:45Z</time></trkpt><trkpt lat="45.619584311771014" lon="8.94215381759889"><ele>225.0</ele><time>2026-04-19T08:23:47Z</time></trkpt><trkpt lat="45.61964699388893" lon="8.942219600186744"><ele>225.0</ele><time>2026-04-19T08:23:50Z</time></trkpt><trkpt lat="45.619708740283585" lon="8.942260183931523"><ele>225.16666666666666</ele><time>2026-04-19T08:23:52Z</time></trkpt><trkpt lat="45.61978583683947" lon="8.942301523805995"><ele>225.33333333333331</ele><time>2026-04-19T08:23:55Z</time></trkpt><trkpt lat="45.619865668462424" lon="8.942327493487296"><ele>225.5</ele><time>2026-04-19T08:23:58Z</time></trkpt><trkpt lat="45.619945619369624" lon="8.942334849321387"><ele>225.66666666666666</ele><time>2026-04-19T08:24:01Z</time></trkpt><trkpt lat="45.62003120405957" lon="8.942378047563441"><ele>225.83333333333331</ele><time>2026-04-19T08:24:04Z</time></trkpt><trkpt lat="45.62011199412709" lon="8.942412297460455"><ele>226.0</ele><time>2026-04-19T08:24:07Z</time></trkpt><trkpt lat="45.62019363113881" lon="8.942460836682363"><ele>225.99999999999997</ele><time>2026-04-19T08:24:10Z</time></trkpt><trkpt lat="45.620274238108905" lon="8.94248791450781"><ele>226.0</ele><time>2026-04-19T08:24:13Z</time></trkpt><trkpt lat="45.62033636051222" lon="8.942509932700288"><ele>226.0</ele><time>2026-04-19T08:24:15Z</time></trkpt><trkpt lat="45.620412510041525" lon="8.94254072861834"><ele>226.0</ele><time>2026-04-19T08:24:18Z</time></trkpt><trkpt lat="45.62049806347663" lon="8.942570392409166"><ele>225.99999999999997</ele><time>2026-04-19T08:24:21Z</time></trkpt><trkpt lat="45.62058561547294" lon="8.942601005557208"><ele>226.0</ele><time>2026-04-19T08:24:24Z</time></trkpt><trkpt lat="45.6206655189864" lon="8.942650309875921"><ele>225.99999999999997</ele><time>2026-04-19T08:24:27Z</time></trkpt><trkpt lat="45.62072564276638" lon="8.942681146743261"><ele>226.0</ele><time>2026-04-19T08:24:29Z</time></trkpt><trkpt lat="45.62079798912448" lon="8.942683947609101"><ele>226.0</ele><time>2026-04-19T08:24:32Z</time></trkpt><trkpt lat="45.620877295746155" lon="8.942699214842653"><ele>226.0</ele><time>2026-04-19T08:24:35Z</time></trkpt><trkpt lat="45.620966064284794" lon="8.942708053622011"><ele>225.99999999999997</ele><time>2026-04-19T08:24:38Z</time></trkpt><trkpt lat="45.621045763918616" lon="8.942758893005426"><ele>226.0</ele><time>2026-04-19T08:24:41Z</time></trkpt><trkpt lat="45.62112848712251" lon="8.942784778226086"><ele>225.99999999999997</ele><time>2026-04-19T08:24:44Z</time></trkpt><trkpt lat="45.62119843083415" lon="8.942834304242249"><ele>226.0</ele><time>2026-04-19T08:24:47Z</time></trkpt><trkpt lat="45.621267955126406" lon="8.942858878664628"><ele>226.0</ele><time>2026-04-19T08:24:50Z</time></trkpt><trkpt lat="45.62133908467789" lon="8.94290317052663"><ele>226.0</ele><time>2026-04-19T08:24:53Z</time></trkpt><trkpt lat="45.62141201459619" lon="8.942889138545363"><ele>225.99999999999997</ele><time>2026-04-19T08:24:56Z</time></trkpt><trkpt lat="45.621480120057285" lon="8.942918437809181"><ele>226.0</ele><time>2026-04-19T08:24:59Z</time></trkpt><trkpt lat="45.62155339686536" lon="8.942973938562176"><ele>225.99999999999997</ele><time>2026-04-19T08:25:02Z</time></trkpt><trkpt lat="45.62161461775432" lon="8.943058834856735"><ele>226.0</ele><time>2026-04-19T08:25:05Z</time></trkpt><trkpt lat="45.62169256527921" lon="8.943089779230734"><ele>226.0</ele><time>2026-04-19T08:25:09Z</time></trkpt><trkpt lat="45.621755599404494" lon="8.943028858595815"><ele>226.0</ele><time>2026-04-19T08:25:12Z</time></trkpt><trkpt lat="45.62181714265673" lon="8.943102094508463"><ele>225.99999999999997</ele><time>2026-04-19T08:25:14Z</time></trkpt><trkpt lat="45.62185294213902" lon="8.943199814806196"><ele>226.0</ele><time>2026-04-19T08:25:17Z</time></trkpt><trkpt lat="45.62185913320428" lon="8.943307979720473"><ele>225.99999999999997</ele><time>2026-04-19T08:25:20Z</time></trkpt><trkpt lat="45.62188469167514" lon="8.943401965995495"><ele>226.0</ele><time>2026-04-19T08:25:23Z</time></trkpt><trkpt lat="45.62191562599918" lon="8.943497207459426"><ele>226.0</ele><time>2026-04-19T08:25:26Z</time></trkpt><trkpt lat="45.621931427939096" lon="8.943613487336194"><ele>226.0</ele><time>2026-04-19T08:25:29Z</time></trkpt><trkpt lat="45.62192982101743" lon="8.943723456474896"><ele>225.99999999999997</ele><time>2026-04-19T08:25:32Z</time></trkpt><trkpt lat="45.62193176728435" lon="8.943843650383325"><ele>226.0</ele><time>2026-04-19T08:25:35Z</time></trkpt><trkpt lat="45.62188503847793" lon="8.94396916982675"><ele>225.99999999999997</ele><time>2026-04-19T08:25:38Z</time></trkpt><trkpt lat="45.62185607682645" lon="8.944075287379148"><ele>226.0</ele><time>2026-04-19T08:25:41Z</time></trkpt><trkpt lat="45.62180387926903" lon="8.944154429884124"><ele>226.0</ele><time>2026-04-19T08:25:44Z</time></trkpt><trkpt lat="45.62174689783847" lon="8.944194964220207"><ele>226.0</ele><time>2026-04-19T08:25:46Z</time></trkpt><trkpt lat="45.62168764564846" lon="8.944277736654781"><ele>225.99999999999997</ele><time>2026-04-19T08:25:49Z</time></trkpt><trkpt lat="45.62164261675202" lon="8.944358602025751"><ele>226.0</ele><time>2026-04-19T08:25:52Z</time></trkpt><trkpt lat="45.62157256175106" lon="8.9444460954611"><ele>226.16666666666666</ele><time>2026-04-19T08:25:55Z</time></trkpt><trkpt lat="45.62151563591027" lon="8.944514044139812"><ele>226.33333333333331</ele><time>2026-04-19T08:25:58Z</time></trkpt><trkpt lat="45.6214482669907" lon="8.944566648934309"><ele>226.5</ele><time>2026-04-19T08:26:01Z</time></trkpt><trkpt lat="45.62140223026149" lon="8.944653229461329"><ele>226.66666666666669</ele><time>2026-04-19T08:26:04Z</time></trkpt><trkpt lat="45.62132861292716" lon="8.944715354689873"><ele>226.83333333333334</ele><time>2026-04-19T08:26:07Z</time></trkpt><trkpt lat="45.621289122395225" lon="8.944802521356996"><ele>227.0</ele><time>2026-04-19T08:26:10Z</time></trkpt><trkpt lat="45.621235336147855" lon="8.944885035604297"><ele>227.00000000000003</ele><time>2026-04-19T08:26:13Z</time></trkpt><trkpt lat="45.62117253329682" lon="8.94496958436095"><ele>227.0</ele><time>2026-04-19T08:26:16Z</time></trkpt><trkpt lat="45.62112192311015" lon="8.945045307103758"><ele>227.0</ele><time>2026-04-19T08:26:19Z</time></trkpt><trkpt lat="45.62110390845728" lon="8.945136830882273"><ele>227.0</ele><time>2026-04-19T08:26:21Z</time></trkpt><trkpt lat="45.621038524978886" lon="8.945210165414977"><ele>227.00000000000003</ele><time>2026-04-19T08:26:24Z</time></trkpt><trkpt lat="45.62098535899093" lon="8.945299638108416"><ele>227.0</ele><time>2026-04-19T08:26:27Z</time></trkpt><trkpt lat="45.62091904753035" lon="8.945377652623662"><ele>227.00000000000003</ele><time>2026-04-19T08:26:30Z</time></trkpt><trkpt lat="45.620854243255756" lon="8.945363531431074"><ele>227.0</ele><time>2026-04-19T08:26:32Z</time></trkpt><trkpt lat="45.620785554685675" lon="8.94544167164208"><ele>227.0</ele><time>2026-04-19T08:26:35Z</time></trkpt><trkpt lat="45.62076342347317" lon="8.945526573119027"><ele>227.0</ele><time>2026-04-19T08:26:37Z</time></trkpt><trkpt lat="45.62072555198294" lon="8.945632901071953"><ele>227.00000000000003</ele><time>2026-04-19T08:26:40Z</time></trkpt><trkpt lat="45.62065397235916" lon="8.94570626330824"><ele>227.0</ele><time>2026-04-19T08:26:43Z</time></trkpt><trkpt lat="45.62058638853623" lon="8.94579265231337"><ele>227.00000000000003</ele><time>2026-04-19T08:26:46Z</time></trkpt><trkpt lat="45.62052963022326" lon="8.945886267222598"><ele>227.0</ele><time>2026-04-19T08:26:49Z</time></trkpt><trkpt lat="45.62048026920722" lon="8.945962347234623"><ele>227.0</ele><time>2026-04-19T08:26:52Z</time></trkpt><trkpt lat="45.62041634061025" lon="8.946054287243149"><ele>227.0</ele><time>2026-04-19T08:26:55Z</time></trkpt><trkpt lat="45.620360931638714" lon="8.946144669660702"><ele>227.00000000000003</ele><time>2026-04-19T08:26:58Z</time></trkpt><trkpt lat="45.620354926837116" lon="8.946256182792084"><ele>227.0</ele><time>2026-04-19T08:27:01Z</time></trkpt><trkpt lat="45.62040423162697" lon="8.946359961040281"><ele>227.00000000000003</ele><time>2026-04-19T08:27:04Z</time></trkpt><trkpt lat="45.62047536594073" lon="8.946431659237762"><ele>227.0</ele><time>2026-04-19T08:27:07Z</time></trkpt><trkpt lat="45.62055497886638" lon="8.946488153053037"><ele>227.0</ele><time>2026-04-19T08:27:10Z</time></trkpt><trkpt lat="45.62060114399455" lon="8.946580294400011"><ele>227.0</ele><time>2026-04-19T08:27:13Z</time></trkpt><trkpt lat="45.620673304393385" lon="8.946683830896058"><ele>227.00000000000003</ele><time>2026-04-19T08:27:16Z</time></trkpt><trkpt lat="45.6207329115449" lon="8.946782076032049"><ele>227.0</ele><time>2026-04-19T08:27:19Z</time></trkpt><trkpt lat="45.620800515334025" lon="8.946863381736874"><ele>226.83333333333334</ele><time>2026-04-19T08:27:22Z</time></trkpt><trkpt lat="45.62085035431819" lon="8.946955875510831"><ele>226.66666666666669</ele><time>2026-04-19T08:27:25Z</time></trkpt><trkpt lat="45.620923238452804" lon="8.947032090431367"><ele>226.5</ele><time>2026-04-19T08:27:28Z</time></trkpt><trkpt lat="45.62098387710502" lon="8.94710951081204"><ele>226.33333333333331</ele><time>2026-04-19T08:27:31Z</time></trkpt><trkpt lat="45.62103916098335" lon="8.947152903745064"><ele>226.16666666666666</ele><time>2026-04-19T08:27:33Z</time></trkpt><trkpt lat="45.621107436787305" lon="8.94724265949646"><ele>226.0</ele><time>2026-04-19T08:27:36Z</time></trkpt><trkpt lat="45.62119404281848" lon="8.947297144526699"><ele>225.99999999999997</ele><time>2026-04-19T08:27:39Z</time></trkpt><trkpt lat="45.621236300769475" lon="8.9473700484111"><ele>226.0</ele><time>2026-04-19T08:27:41Z</time></trkpt><trkpt lat="45.62126743308232" lon="8.947459556142244"><ele>226.0</ele><time>2026-04-19T08:27:43Z</time></trkpt><trkpt lat="45.62128438002365" lon="8.9475515035097"><ele>226.0</ele><time>2026-04-19T08:27:45Z</time></trkpt><trkpt lat="45.62133680812277" lon="8.947651026174674"><ele>225.99999999999997</ele><time>2026-04-19T08:27:48Z</time></trkpt><trkpt lat="45.62138517759626" lon="8.947765263579553"><ele>226.0</ele><time>2026-04-19T08:27:51Z</time></trkpt><trkpt lat="45.62143875113916" lon="8.947860692711611"><ele>225.83333333333331</ele><time>2026-04-19T08:27:54Z</time></trkpt><trkpt lat="45.621459647381656" lon="8.94795224995552"><ele>225.66666666666666</ele><time>2026-04-19T08:27:56Z</time></trkpt><trkpt lat="45.62147635524596" lon="8.94804884668387"><ele>225.5</ele><time>2026-04-19T08:27:58Z</time></trkpt><trkpt lat="45.621488079637196" lon="8.94815065086358"><ele>225.33333333333331</ele><time>2026-04-19T08:28:00Z</time></trkpt><trkpt lat="45.621534190512186" lon="8.948263997294095"><ele>225.16666666666666</ele><time>2026-04-19T08:28:03Z</time></trkpt><trkpt lat="45.621581302580275" lon="8.948364009794927"><ele>225.0</ele><time>2026-04-19T08:28:06Z</time></trkpt><trkpt lat="45.621659130982536" lon="8.948438787163612"><ele>225.0</ele><time>2026-04-19T08:28:09Z</time></trkpt><trkpt lat="45.62166854359998" lon="8.948535784345166"><ele>225.0</ele><time>2026-04-19T08:28:11Z</time></trkpt><trkpt lat="45.621736959081694" lon="8.948623708607728"><ele>225.0</ele><time>2026-04-19T08:28:14Z</time></trkpt><trkpt lat="45.6217785614084" lon="8.948694453997861"><ele>225.0</ele><time>2026-04-19T08:28:16Z</time></trkpt><trkpt lat="45.62180912446594" lon="8.948808894515274"><ele>225.0</ele><time>2026-04-19T08:28:19Z</time></trkpt><trkpt lat="45.62187165941623" lon="8.948904986166061"><ele>225.0</ele><time>2026-04-19T08:28:22Z</time></trkpt><trkpt lat="45.62190838745373" lon="8.949035077285695"><ele>225.00000000000003</ele><time>2026-04-19T08:28:25Z</time></trkpt><trkpt lat="45.621937264761485" lon="8.949124093005556"><ele>225.0</ele><time>2026-04-19T08:28:27Z</time></trkpt><trkpt lat="45.62198874182934" lon="8.949217149978761"><ele>225.00000000000003</ele><time>2026-04-19T08:28:30Z</time></trkpt><trkpt lat="45.6220312007356" lon="8.949292804974633"><ele>225.00000000000003</ele><time>2026-04-19T08:28:32Z</time></trkpt><trkpt lat="45.622082260052444" lon="8.949350267359529"><ele>225.0</ele><time>2026-04-19T08:28:34Z</time></trkpt><trkpt lat="45.62212552199787" lon="8.949418704322019"><ele>225.00000000000003</ele><time>2026-04-19T08:28:36Z</time></trkpt><trkpt lat="45.62215939396659" lon="8.949496973536373"><ele>225.00000000000003</ele><time>2026-04-19T08:28:38Z</time></trkpt><trkpt lat="45.622196964399315" lon="8.949603517273642"><ele>225.16666666666666</ele><time>2026-04-19T08:28:41Z</time></trkpt><trkpt lat="45.62224126697371" lon="8.949688696071421"><ele>225.33333333333331</ele><time>2026-04-19T08:28:44Z</time></trkpt><trkpt lat="45.62225916106095" lon="8.949810878965774"><ele>225.5</ele><time>2026-04-19T08:28:47Z</time></trkpt><trkpt lat="45.62229164579383" lon="8.949916870540973"><ele>225.66666666666666</ele><time>2026-04-19T08:28:50Z</time></trkpt><trkpt lat="45.62233463699584" lon="8.94999502276037"><ele>225.83333333333331</ele><time>2026-04-19T08:28:53Z</time></trkpt><trkpt lat="45.62237918009936" lon="8.95008560884342"><ele>226.0</ele><time>2026-04-19T08:28:56Z</time></trkpt><trkpt lat="45.62239014793335" lon="8.950207902261104"><ele>225.99999999999997</ele><time>2026-04-19T08:28:59Z</time></trkpt><trkpt lat="45.622380895831604" lon="8.950317453865598"><ele>226.0</ele><time>2026-04-19T08:29:02Z</time></trkpt><trkpt lat="45.62240629532257" lon="8.95043877258095"><ele>226.0</ele><time>2026-04-19T08:29:05Z</time></trkpt><trkpt lat="45.62238050553196" lon="8.950561871104265"><ele>226.0</ele><time>2026-04-19T08:29:08Z</time></trkpt><trkpt lat="45.622346825950856" lon="8.950660184671564"><ele>225.99999999999997</ele><time>2026-04-19T08:29:11Z</time></trkpt><trkpt lat="45.62228778249003" lon="8.950745438019565"><ele>226.0</ele><time>2026-04-19T08:29:14Z</time></trkpt><trkpt lat="45.62223228051126" lon="8.950797481366976"><ele>225.99999999999997</ele><time>2026-04-19T08:29:16Z</time></trkpt><trkpt lat="45.62217121065632" lon="8.950871285976346"><ele>226.0</ele><time>2026-04-19T08:29:19Z</time></trkpt><trkpt lat="45.622107774842604" lon="8.950930592344672"><ele>226.0</ele><time>2026-04-19T08:29:22Z</time></trkpt><trkpt lat="45.62203791605954" lon="8.950992560878"><ele>226.0</ele><time>2026-04-19T08:29:25Z</time></trkpt><trkpt lat="45.62198550695401" lon="8.951085323782978"><ele>225.99999999999997</ele><time>2026-04-19T08:29:28Z</time></trkpt><trkpt lat="45.621907414142434" lon="8.951129118937072"><ele>226.0</ele><time>2026-04-19T08:29:31Z</time></trkpt><trkpt lat="45.62184597843604" lon="8.951203586447251"><ele>225.66666666666666</ele><time>2026-04-19T08:29:35Z</time></trkpt><trkpt lat="45.62177896552418" lon="8.951284512197066"><ele>225.33333333333331</ele><time>2026-04-19T08:29:39Z</time></trkpt><trkpt lat="45.62173193479045" lon="8.951368181390361"><ele>225.0</ele><time>2026-04-19T08:29:42Z</time></trkpt><trkpt lat="45.62167083867378" lon="8.9514317252975"><ele>224.66666666666669</ele><time>2026-04-19T08:29:45Z</time></trkpt><trkpt lat="45.62160284048131" lon="8.951493130300774"><ele>224.33333333333334</ele><time>2026-04-19T08:29:48Z</time></trkpt><trkpt lat="45.62155809264987" lon="8.951605990720115"><ele>224.0</ele><time>2026-04-19T08:29:51Z</time></trkpt><trkpt lat="45.62150244608289" lon="8.951676803475998"><ele>224.00000000000003</ele><time>2026-04-19T08:29:54Z</time></trkpt><trkpt lat="45.621421654498796" lon="8.95173271406073"><ele>224.0</ele><time>2026-04-19T08:29:58Z</time></trkpt><trkpt lat="45.62141550047377" lon="8.951848372396176"><ele>224.0</ele><time>2026-04-19T08:30:00Z</time></trkpt><trkpt lat="45.62140604160734" lon="8.951970952503885"><ele>224.0</ele><time>2026-04-19T08:30:03Z</time></trkpt><trkpt lat="45.62133970772809" lon="8.952033018510747"><ele>224.00000000000003</ele><time>2026-04-19T08:30:05Z</time></trkpt><trkpt lat="45.62127184888192" lon="8.952104529440337"><ele>224.0</ele><time>2026-04-19T08:30:08Z</time></trkpt><trkpt lat="45.62121738379619" lon="8.952189784604927"><ele>224.00000000000003</ele><time>2026-04-19T08:30:11Z</time></trkpt><trkpt lat="45.621151571877526" lon="8.952262920098923"><ele>224.0</ele><time>2026-04-19T08:30:14Z</time></trkpt><trkpt lat="45.62108268248571" lon="8.952338804748065"><ele>224.0</ele><time>2026-04-19T08:30:17Z</time></trkpt><trkpt lat="45.6210255837681" lon="8.95242595146944"><ele>224.0</ele><time>2026-04-19T08:30:20Z</time></trkpt><trkpt lat="45.62096660957249" lon="8.95252100401092"><ele>224.00000000000003</ele><time>2026-04-19T08:30:23Z</time></trkpt><trkpt lat="45.62089847408681" lon="8.95260230964869"><ele>224.0</ele><time>2026-04-19T08:30:26Z</time></trkpt><trkpt lat="45.620848739816054" lon="8.952667770014763"><ele>224.00000000000003</ele><time>2026-04-19T08:30:28Z</time></trkpt><trkpt lat="45.62077079567329" lon="8.95273650526934"><ele>224.0</ele><time>2026-04-19T08:30:31Z</time></trkpt><trkpt lat="45.62071885571849" lon="8.952816429656357"><ele>224.0</ele><time>2026-04-19T08:30:34Z</time></trkpt><trkpt lat="45.620657363498125" lon="8.952858281083019"><ele>224.0</ele><time>2026-04-19T08:30:36Z</time></trkpt><trkpt lat="45.62060183552471" lon="8.952902990504672"><ele>224.00000000000003</ele><time>2026-04-19T08:30:38Z</time></trkpt><trkpt lat="45.620567834464175" lon="8.953001540189746"><ele>224.0</ele><time>2026-04-19T08:30:40Z</time></trkpt><trkpt lat="45.620500681708" lon="8.953086898522516"><ele>224.00000000000003</ele><time>2026-04-19T08:30:43Z</time></trkpt><trkpt lat="45.62044072365644" lon="8.95312241944077"><ele>224.0</ele><time>2026-04-19T08:30:45Z</time></trkpt><trkpt lat="45.62037293504632" lon="8.953199134502428"><ele>224.0</ele><time>2026-04-19T08:30:48Z</time></trkpt><trkpt lat="45.62030953184696" lon="8.953291898268285"><ele>224.0</ele><time>2026-04-19T08:30:51Z</time></trkpt><trkpt lat="45.62025802065155" lon="8.953348019149745"><ele>224.00000000000003</ele><time>2026-04-19T08:30:53Z</time></trkpt><trkpt lat="45.62020918996212" lon="8.953417569951723"><ele>224.0</ele><time>2026-04-19T08:30:55Z</time></trkpt><trkpt lat="45.620155988956874" lon="8.953500030710833"><ele>223.50000000000003</ele><time>2026-04-19T08:30:58Z</time></trkpt><trkpt lat="45.62009690271007" lon="8.953591338961767"><ele>223.0</ele><time>2026-04-19T08:31:01Z</time></trkpt><trkpt lat="45.620039132139965" lon="8.95363052040413"><ele>222.5</ele><time>2026-04-19T08:31:03Z</time></trkpt><trkpt lat="45.61998073918436" lon="8.953707514436903"><ele>222.0</ele><time>2026-04-19T08:31:06Z</time></trkpt><trkpt lat="45.61989257922891" lon="8.953777008906643"><ele>221.50000000000003</ele><time>2026-04-19T08:31:09Z</time></trkpt><trkpt lat="45.61984956227694" lon="8.953843918652625"><ele>221.0</ele><time>2026-04-19T08:31:11Z</time></trkpt><trkpt lat="45.61976052807771" lon="8.953914050434962"><ele>221.00000000000003</ele><time>2026-04-19T08:31:14Z</time></trkpt><trkpt lat="45.619704617826834" lon="8.954010639135019"><ele>221.0</ele><time>2026-04-19T08:31:17Z</time></trkpt><trkpt lat="45.6196494491546" lon="8.954091409027349"><ele>221.0</ele><time>2026-04-19T08:31:19Z</time></trkpt><trkpt lat="45.619583679048006" lon="8.954160695232986"><ele>221.0</ele><time>2026-04-19T08:31:22Z</time></trkpt><trkpt lat="45.61951284624153" lon="8.9542248511478"><ele>221.00000000000003</ele><time>2026-04-19T08:31:25Z</time></trkpt><trkpt lat="45.619437453274536" lon="8.95430713714388"><ele>221.0</ele><time>2026-04-19T08:31:28Z</time></trkpt><trkpt lat="45.61936491137982" lon="8.954374835664035"><ele>221.16666666666669</ele><time>2026-04-19T08:31:31Z</time></trkpt><trkpt lat="45.61931043637883" lon="8.954457387416348"><ele>221.33333333333334</ele><time>2026-04-19T08:31:34Z</time></trkpt><trkpt lat="45.619260200741834" lon="8.954542815451596"><ele>221.5</ele><time>2026-04-19T08:31:36Z</time></trkpt><trkpt lat="45.619190407578216" lon="8.954637535780007"><ele>221.66666666666669</ele><time>2026-04-19T08:31:39Z</time></trkpt><trkpt lat="45.61913466315739" lon="8.954687589195968"><ele>221.83333333333334</ele><time>2026-04-19T08:31:41Z</time></trkpt><trkpt lat="45.61908033016104" lon="8.954780145242854"><ele>222.0</ele><time>2026-04-19T08:31:44Z</time></trkpt><trkpt lat="45.6190089658054" lon="8.954877751352244"><ele>222.0</ele><time>2026-04-19T08:31:47Z</time></trkpt><trkpt lat="45.61895028498888" lon="8.95494757030556"><ele>222.0</ele><time>2026-04-19T08:31:49Z</time></trkpt><trkpt lat="45.61889804432302" lon="8.955039303748206"><ele>222.0</ele><time>2026-04-19T08:31:52Z</time></trkpt><trkpt lat="45.618823644674634" lon="8.955038155161056"><ele>222.0</ele><time>2026-04-19T08:31:54Z</time></trkpt><trkpt lat="45.61873600375869" lon="8.954958894950808"><ele>222.0</ele><time>2026-04-19T08:31:57Z</time></trkpt><trkpt lat="45.618696607136" lon="8.954878258028721"><ele>222.0</ele><time>2026-04-19T08:31:59Z</time></trkpt><trkpt lat="45.61866196553133" lon="8.954785723739358"><ele>221.66666666666666</ele><time>2026-04-19T08:32:01Z</time></trkpt><trkpt lat="45.618636807495136" lon="8.95469481901298"><ele>221.33333333333331</ele><time>2026-04-19T08:32:03Z</time></trkpt><trkpt lat="45.61858303651967" lon="8.954577212949875"><ele>221.0</ele><time>2026-04-19T08:32:06Z</time></trkpt><trkpt lat="45.618553534394984" lon="8.954451435966668"><ele>220.66666666666666</ele><time>2026-04-19T08:32:09Z</time></trkpt><trkpt lat="45.61850592909045" lon="8.954383075126058"><ele>220.33333333333331</ele><time>2026-04-19T08:32:12Z</time></trkpt><trkpt lat="45.61845725969844" lon="8.954272127443682"><ele>220.0</ele><time>2026-04-19T08:32:15Z</time></trkpt><trkpt lat="45.618401024466834" lon="8.954221777893006"><ele>220.33333333333331</ele><time>2026-04-19T08:32:17Z</time></trkpt><trkpt lat="45.618348226931154" lon="8.954132215135573"><ele>220.66666666666666</ele><time>2026-04-19T08:32:20Z</time></trkpt><trkpt lat="45.61828394316479" lon="8.954045653053441"><ele>221.0</ele><time>2026-04-19T08:32:23Z</time></trkpt><trkpt lat="45.61822692221231" lon="8.953988029408913"><ele>221.33333333333331</ele><time>2026-04-19T08:32:25Z</time></trkpt><trkpt lat="45.61817299830523" lon="8.953880496330788"><ele>221.66666666666666</ele><time>2026-04-19T08:32:28Z</time></trkpt><trkpt lat="45.61813091034397" lon="8.953782550413052"><ele>222.0</ele><time>2026-04-19T08:32:31Z</time></trkpt><trkpt lat="45.61804868348779" lon="8.953727961963304"><ele>222.0</ele><time>2026-04-19T08:32:34Z</time></trkpt><trkpt lat="45.618017567675125" lon="8.953619358397384"><ele>222.0</ele><time>2026-04-19T08:32:37Z</time></trkpt><trkpt lat="45.61795039075487" lon="8.953536889030556"><ele>222.0</ele><time>2026-04-19T08:32:40Z</time></trkpt><trkpt lat="45.61789099596975" lon="8.953468842683556"><ele>222.0</ele><time>2026-04-19T08:32:43Z</time></trkpt><trkpt lat="45.61783466074136" lon="8.953389029029468"><ele>222.0</ele><time>2026-04-19T08:32:46Z</time></trkpt><trkpt lat="45.61777539493376" lon="8.953290366140548"><ele>222.0</ele><time>2026-04-19T08:32:49Z</time></trkpt><trkpt lat="45.61772822086403" lon="8.953218137941596"><ele>221.83333333333334</ele><time>2026-04-19T08:32:52Z</time></trkpt><trkpt lat="45.61769681254321" lon="8.953121241637618"><ele>221.66666666666669</ele><time>2026-04-19T08:32:55Z</time></trkpt><trkpt lat="45.61764080380492" lon="8.95302926841497"><ele>221.5</ele><time>2026-04-19T08:32:58Z</time></trkpt><trkpt lat="45.61758469571946" lon="8.952950185765395"><ele>221.33333333333334</ele><time>2026-04-19T08:33:01Z</time></trkpt><trkpt lat="45.617543395337144" lon="8.952865825703615"><ele>221.16666666666669</ele><time>2026-04-19T08:33:04Z</time></trkpt><trkpt lat="45.61748666684908" lon="8.95279280333463"><ele>221.0</ele><time>2026-04-19T08:33:07Z</time></trkpt><trkpt lat="45.61743271690931" lon="8.952712369286312"><ele>221.00000000000003</ele><time>2026-04-19T08:33:10Z</time></trkpt><trkpt lat="45.61736875250756" lon="8.952633797151542"><ele>221.0</ele><time>2026-04-19T08:33:13Z</time></trkpt><trkpt lat="45.61731923396415" lon="8.952554189040665"><ele>221.0</ele><time>2026-04-19T08:33:16Z</time></trkpt><trkpt lat="45.617255601955726" lon="8.95248579691273"><ele>221.0</ele><time>2026-04-19T08:33:19Z</time></trkpt><trkpt lat="45.61721473540396" lon="8.952400168689474"><ele>221.00000000000003</ele><time>2026-04-19T08:33:22Z</time></trkpt><trkpt lat="45.61713472552632" lon="8.952365403877833"><ele>221.0</ele><time>2026-04-19T08:33:25Z</time></trkpt><trkpt lat="45.617086814306724" lon="8.952263041681377"><ele>221.00000000000003</ele><time>2026-04-19T08:33:28Z</time></trkpt><trkpt lat="45.61704550152712" lon="8.952171720279129"><ele>221.0</ele><time>2026-04-19T08:33:31Z</time></trkpt><trkpt lat="45.61699985870398" lon="8.952077835655627"><ele>221.0</ele><time>2026-04-19T08:33:34Z</time></trkpt><trkpt lat="45.616943261348105" lon="8.95199875739396"><ele>221.0</ele><time>2026-04-19T08:33:36.999Z</time></trkpt><trkpt lat="45.61690350743138" lon="8.951906194270416"><ele>221.00000000000003</ele><time>2026-04-19T08:33:39.999Z</time></trkpt><trkpt lat="45.61689389999071" lon="8.95180695020554"><ele>221.0</ele><time>2026-04-19T08:33:41.999Z</time></trkpt><trkpt lat="45.616831702015936" lon="8.951746698680028"><ele>221.00000000000003</ele><time>2026-04-19T08:33:44.999Z</time></trkpt><trkpt lat="45.61676725082429" lon="8.95169355330353"><ele>221.0</ele><time>2026-04-19T08:33:47.999Z</time></trkpt><trkpt lat="45.61668273795496" lon="8.951639962703362"><ele>221.0</ele><time>2026-04-19T08:33:50.999Z</time></trkpt><trkpt lat="45.61666125340056" lon="8.951541638257089"><ele>221.0</ele><time>2026-04-19T08:33:53Z</time></trkpt><trkpt lat="45.61663842166478" lon="8.951453924277802"><ele>221.00000000000003</ele><time>2026-04-19T08:33:55Z</time></trkpt><trkpt lat="45.616574610862905" lon="8.95140027370248"><ele>221.0</ele><time>2026-04-19T08:33:58Z</time></trkpt><trkpt lat="45.616523074738346" lon="8.951300385311315"><ele>221.00000000000003</ele><time>2026-04-19T08:34:01Z</time></trkpt><trkpt lat="45.61647231092434" lon="8.951210515365677"><ele>221.0</ele><time>2026-04-19T08:34:04Z</time></trkpt><trkpt lat="45.61641896360858" lon="8.951135495858466"><ele>221.0</ele><time>2026-04-19T08:34:07Z</time></trkpt><trkpt lat="45.61635569481041" lon="8.951055721818522"><ele>221.0</ele><time>2026-04-19T08:34:10Z</time></trkpt><trkpt lat="45.616321800916154" lon="8.950935639686653"><ele>221.00000000000003</ele><time>2026-04-19T08:34:13Z</time></trkpt><trkpt lat="45.61623660675902" lon="8.950869764493268"><ele>221.0</ele><time>2026-04-19T08:34:16Z</time></trkpt><trkpt lat="45.61619443632726" lon="8.950772565620737"><ele>221.16666666666669</ele><time>2026-04-19T08:34:19Z</time></trkpt><trkpt lat="45.61614558094816" lon="8.950712826668264"><ele>221.33333333333334</ele><time>2026-04-19T08:34:21Z</time></trkpt><trkpt lat="45.616117529383345" lon="8.950594568172908"><ele>221.5</ele><time>2026-04-19T08:34:24Z</time></trkpt><trkpt lat="45.616178882328214" lon="8.950503365970556"><ele>221.66666666666669</ele><time>2026-04-19T08:34:26Z</time></trkpt><trkpt lat="45.61623305677404" lon="8.950446579540595"><ele>221.83333333333334</ele><time>2026-04-19T08:34:28Z</time></trkpt><trkpt lat="45.616320640424654" lon="8.950400569697882"><ele>222.0</ele><time>2026-04-19T08:34:31Z</time></trkpt><trkpt lat="45.61637970391782" lon="8.950356866992953"><ele>222.0</ele><time>2026-04-19T08:34:33Z</time></trkpt><trkpt lat="45.616436462590805" lon="8.950278978422393"><ele>222.0</ele><time>2026-04-19T08:34:36Z</time></trkpt><trkpt lat="45.61649934543793" lon="8.950189426326773"><ele>222.0</ele><time>2026-04-19T08:34:39Z</time></trkpt><trkpt lat="45.616537963622065" lon="8.950077676885103"><ele>222.0</ele><time>2026-04-19T08:34:42Z</time></trkpt><trkpt lat="45.61658581694335" lon="8.94997941857867"><ele>222.0</ele><time>2026-04-19T08:34:45Z</time></trkpt><trkpt lat="45.61663813949046" lon="8.949891147386763"><ele>222.0</ele><time>2026-04-19T08:34:48Z</time></trkpt><trkpt lat="45.61660224552451" lon="8.949768949825692"><ele>222.16666666666666</ele><time>2026-04-19T08:34:51Z</time></trkpt><trkpt lat="45.616531832469526" lon="8.949680854972177"><ele>222.33333333333331</ele><time>2026-04-19T08:34:54Z</time></trkpt><trkpt lat="45.616475961747604" lon="8.949615879087048"><ele>222.5</ele><time>2026-04-19T08:34:56Z</time></trkpt><trkpt lat="45.61643292524771" lon="8.949537146330526"><ele>222.66666666666666</ele><time>2026-04-19T08:34:58Z</time></trkpt><trkpt lat="45.61637819045173" lon="8.949442914624882"><ele>222.83333333333331</ele><time>2026-04-19T08:35:01Z</time></trkpt><trkpt lat="45.61638058407678" lon="8.949339981596342"><ele>223.0</ele><time>2026-04-19T08:35:03Z</time></trkpt><trkpt lat="45.616412244588204" lon="8.949262044000893"><ele>222.99999999999997</ele><time>2026-04-19T08:35:05Z</time></trkpt><trkpt lat="45.61648138004394" lon="8.949213894195971"><ele>223.0</ele><time>2026-04-19T08:35:07Z</time></trkpt><trkpt lat="45.61655298221143" lon="8.9491501158903"><ele>223.0</ele><time>2026-04-19T08:35:10Z</time></trkpt><trkpt lat="45.616610502248186" lon="8.9491121818645"><ele>223.0</ele><time>2026-04-19T08:35:12Z</time></trkpt><trkpt lat="45.61667005752176" lon="8.949056904737358"><ele>222.99999999999997</ele><time>2026-04-19T08:35:15Z</time></trkpt><trkpt lat="45.61674061519184" lon="8.948997929833219"><ele>223.0</ele><time>2026-04-19T08:35:18Z</time></trkpt><trkpt lat="45.61682060864409" lon="8.948945266858694"><ele>223.4</ele><time>2026-04-19T08:35:21Z</time></trkpt><trkpt lat="45.61690726962039" lon="8.948892393250874"><ele>223.8</ele><time>2026-04-19T08:35:24Z</time></trkpt><trkpt lat="45.616957229397116" lon="8.948800553763826"><ele>224.2</ele><time>2026-04-19T08:35:27Z</time></trkpt><trkpt lat="45.616915003427174" lon="8.948641197223708"><ele>224.6</ele><time>2026-04-19T08:35:29Z</time></trkpt><trkpt lat="45.61687333810909" lon="8.948554079794022"><ele>225.0</ele><time>2026-04-19T08:35:31Z</time></trkpt><trkpt lat="45.61681619645866" lon="8.948461083372944"><ele>225.0</ele><time>2026-04-19T08:35:34Z</time></trkpt><trkpt lat="45.616748361677054" lon="8.948379421957105"><ele>225.0</ele><time>2026-04-19T08:35:37Z</time></trkpt><trkpt lat="45.616687965477425" lon="8.94828806681373"><ele>225.0</ele><time>2026-04-19T08:35:40Z</time></trkpt><trkpt lat="45.6166543196389" lon="8.94817954818915"><ele>225.0</ele><time>2026-04-19T08:35:43Z</time></trkpt><trkpt lat="45.61661173273898" lon="8.94810998809913"><ele>225.0</ele><time>2026-04-19T08:35:45Z</time></trkpt><trkpt lat="45.616575358269024" lon="8.948004421378926"><ele>225.0</ele><time>2026-04-19T08:35:48Z</time></trkpt><trkpt lat="45.6165233291105" lon="8.947916044050253"><ele>225.0</ele><time>2026-04-19T08:35:51Z</time></trkpt><trkpt lat="45.61647289528662" lon="8.947810809811623"><ele>225.0</ele><time>2026-04-19T08:35:54Z</time></trkpt><trkpt lat="45.61642003111294" lon="8.947721234270604"><ele>225.0</ele><time>2026-04-19T08:35:57Z</time></trkpt><trkpt lat="45.61633901329674" lon="8.94764525923095"><ele>225.0</ele><time>2026-04-19T08:36:00Z</time></trkpt><trkpt lat="45.61625879336595" lon="8.947643162690534"><ele>225.0</ele><time>2026-04-19T08:36:02Z</time></trkpt><trkpt lat="45.616187912686335" lon="8.947704665122068"><ele>225.0</ele><time>2026-04-19T08:36:05Z</time></trkpt><trkpt lat="45.616106754919755" lon="8.94777033835642"><ele>224.66666666666666</ele><time>2026-04-19T08:36:09Z</time></trkpt><trkpt lat="45.616044885294784" lon="8.947853399187032"><ele>224.33333333333331</ele><time>2026-04-19T08:36:12Z</time></trkpt><trkpt lat="45.61599147349479" lon="8.9479486661849"><ele>224.0</ele><time>2026-04-19T08:36:15Z</time></trkpt><trkpt lat="45.61592600603736" lon="8.948039316745668"><ele>223.66666666666666</ele><time>2026-04-19T08:36:18Z</time></trkpt><trkpt lat="45.61590633191422" lon="8.948127582764407"><ele>223.33333333333331</ele><time>2026-04-19T08:36:20Z</time></trkpt><trkpt lat="45.61585125560397" lon="8.94817724445014"><ele>223.0</ele><time>2026-04-19T08:36:22Z</time></trkpt><trkpt lat="45.61583213180345" lon="8.948269441534107"><ele>223.0</ele><time>2026-04-19T08:36:24Z</time></trkpt><trkpt lat="45.615762803611545" lon="8.948294092136653"><ele>223.0</ele><time>2026-04-19T08:36:26Z</time></trkpt><trkpt lat="45.61570494672356" lon="8.948364877790466"><ele>223.0</ele><time>2026-04-19T08:36:29Z</time></trkpt><trkpt lat="45.615642429134695" lon="8.948402814724979"><ele>223.0</ele><time>2026-04-19T08:36:31Z</time></trkpt><trkpt lat="45.61557450287567" lon="8.948370417602426"><ele>223.0</ele><time>2026-04-19T08:36:32Z</time></trkpt><trkpt lat="45.61555489320651" lon="8.948457906463714"><ele>223.0</ele><time>2026-04-19T08:36:34Z</time></trkpt><trkpt lat="45.61549347816607" lon="8.94852231883433"><ele>223.0</ele><time>2026-04-19T08:36:37Z</time></trkpt><trkpt lat="45.6154412650401" lon="8.948572980239394"><ele>222.83333333333331</ele><time>2026-04-19T08:36:39Z</time></trkpt><trkpt lat="45.61537917725949" lon="8.948669073471796"><ele>222.66666666666666</ele><time>2026-04-19T08:36:42Z</time></trkpt><trkpt lat="45.6153103215043" lon="8.948760766928409"><ele>222.5</ele><time>2026-04-19T08:36:45Z</time></trkpt><trkpt lat="45.61526590191496" lon="8.948844222543679"><ele>222.33333333333331</ele><time>2026-04-19T08:36:47Z</time></trkpt><trkpt lat="45.615187827443954" lon="8.948909967363598"><ele>222.16666666666666</ele><time>2026-04-19T08:36:50Z</time></trkpt><trkpt lat="45.61512421924098" lon="8.94894871777422"><ele>222.0</ele><time>2026-04-19T08:36:52Z</time></trkpt><trkpt lat="45.61505054634655" lon="8.948880798579436"><ele>222.0</ele><time>2026-04-19T08:36:55Z</time></trkpt><trkpt lat="45.615018784452886" lon="8.948793431996306"><ele>222.0</ele><time>2026-04-19T08:36:57Z</time></trkpt><trkpt lat="45.614958608017396" lon="8.948709301016644"><ele>222.0</ele><time>2026-04-19T08:37:00Z</time></trkpt><trkpt lat="45.61489773818992" lon="8.948605319723274"><ele>222.0</ele><time>2026-04-19T08:37:03Z</time></trkpt><trkpt lat="45.614852536036686" lon="8.948528682656546"><ele>222.0</ele><time>2026-04-19T08:37:05Z</time></trkpt><trkpt lat="45.61478172765503" lon="8.948446925975727"><ele>222.0</ele><time>2026-04-19T08:37:08Z</time></trkpt><trkpt lat="45.61473983308904" lon="8.948350355216688"><ele>221.66666666666666</ele><time>2026-04-19T08:37:10Z</time></trkpt><trkpt lat="45.614708196280986" lon="8.948264119861102"><ele>221.33333333333331</ele><time>2026-04-19T08:37:12Z</time></trkpt><trkpt lat="45.61465514142278" lon="8.94815149887094"><ele>221.0</ele><time>2026-04-19T08:37:15Z</time></trkpt><trkpt lat="45.61466659495533" lon="8.948050221665586"><ele>220.66666666666666</ele><time>2026-04-19T08:37:17Z</time></trkpt><trkpt lat="45.61470155545823" lon="8.94794103931364"><ele>220.33333333333331</ele><time>2026-04-19T08:37:20Z</time></trkpt><trkpt lat="45.61477128344772" lon="8.947843037789857"><ele>220.0</ele><time>2026-04-19T08:37:23Z</time></trkpt><trkpt lat="45.61479200054487" lon="8.947736973739485"><ele>219.99999999999997</ele><time>2026-04-19T08:37:26Z</time></trkpt><trkpt lat="45.61478170414976" lon="8.947640907233925"><ele>220.0</ele><time>2026-04-19T08:37:28Z</time></trkpt><trkpt lat="45.61480509224372" lon="8.947518419415902"><ele>220.0</ele><time>2026-04-19T08:37:31Z</time></trkpt><trkpt lat="45.61481619697163" lon="8.947429142573343"><ele>220.0</ele><time>2026-04-19T08:37:33Z</time></trkpt><trkpt lat="45.614838375522176" lon="8.947315428500064"><ele>219.99999999999997</ele><time>2026-04-19T08:37:36Z</time></trkpt><trkpt lat="45.6147805695589" lon="8.947258052476691"><ele>220.0</ele><time>2026-04-19T08:37:38Z</time></trkpt><trkpt lat="45.61470003420495" lon="8.947285112646771"><ele>219.99999999999997</ele><time>2026-04-19T08:37:40Z</time></trkpt><trkpt lat="45.614642850017844" lon="8.947367308377057"><ele>220.0</ele><time>2026-04-19T08:37:43Z</time></trkpt><trkpt lat="45.614584209909324" lon="8.94743802461347"><ele>220.0</ele><time>2026-04-19T08:37:46Z</time></trkpt><trkpt lat="45.61455915060753" lon="8.947558006936225"><ele>220.0</ele><time>2026-04-19T08:37:49Z</time></trkpt><trkpt lat="45.61448961837997" lon="8.9476618902383"><ele>219.99999999999997</ele><time>2026-04-19T08:37:52Z</time></trkpt><trkpt lat="45.614466850942605" lon="8.947784560620777"><ele>220.0</ele><time>2026-04-19T08:37:54Z</time></trkpt><trkpt lat="45.614410930976" lon="8.94785579782517"><ele>219.83333333333331</ele><time>2026-04-19T08:37:57Z</time></trkpt><trkpt lat="45.6143576965354" lon="8.947917931785616"><ele>219.66666666666666</ele><time>2026-04-19T08:38:00Z</time></trkpt><trkpt lat="45.61433482514211" lon="8.948029301708525"><ele>219.5</ele><time>2026-04-19T08:38:03Z</time></trkpt><trkpt lat="45.614249402951714" lon="8.94807654360249"><ele>219.33333333333331</ele><time>2026-04-19T08:38:07Z</time></trkpt><trkpt lat="45.61420500577673" lon="8.94817012213045"><ele>219.16666666666666</ele><time>2026-04-19T08:38:10Z</time></trkpt><trkpt lat="45.61413464565168" lon="8.948229098295043"><ele>219.0</ele><time>2026-04-19T08:38:13Z</time></trkpt><trkpt lat="45.614085920770925" lon="8.9483104730022"><ele>219.16666666666666</ele><time>2026-04-19T08:38:16Z</time></trkpt><trkpt lat="45.61402790351233" lon="8.948380637900842"><ele>219.33333333333331</ele><time>2026-04-19T08:38:19Z</time></trkpt><trkpt lat="45.61395508281098" lon="8.94845610376755"><ele>219.5</ele><time>2026-04-19T08:38:22Z</time></trkpt><trkpt lat="45.613875951098855" lon="8.948503962668697"><ele>219.66666666666666</ele><time>2026-04-19T08:38:25Z</time></trkpt><trkpt lat="45.613811774268136" lon="8.948567939371689"><ele>219.83333333333331</ele><time>2026-04-19T08:38:28Z</time></trkpt><trkpt lat="45.61374827830955" lon="8.948589647411442"><ele>220.0</ele><time>2026-04-19T08:38:30Z</time></trkpt><trkpt lat="45.61369665671154" lon="8.948522874082823"><ele>219.99999999999997</ele><time>2026-04-19T08:38:32Z</time></trkpt><trkpt lat="45.61366254659544" lon="8.948385492929956"><ele>220.0</ele><time>2026-04-19T08:38:35Z</time></trkpt><trkpt lat="45.61360630639311" lon="8.948299858842534"><ele>220.0</ele><time>2026-04-19T08:38:38Z</time></trkpt><trkpt lat="45.6135361036508" lon="8.94822588175419"><ele>220.0</ele><time>2026-04-19T08:38:41Z</time></trkpt><trkpt lat="45.613482852841464" lon="8.948139920686385"><ele>219.99999999999997</ele><time>2026-04-19T08:38:44Z</time></trkpt><trkpt lat="45.61342766801106" lon="8.948049937890623"><ele>220.0</ele><time>2026-04-19T08:38:47Z</time></trkpt><trkpt lat="45.613385758396895" lon="8.947943688672295"><ele>219.99999999999997</ele><time>2026-04-19T08:38:50Z</time></trkpt><trkpt lat="45.61333407458354" lon="8.94784689038122"><ele>220.0</ele><time>2026-04-19T08:38:53Z</time></trkpt><trkpt lat="45.613278225348566" lon="8.94776399357504"><ele>220.0</ele><time>2026-04-19T08:38:56Z</time></trkpt><trkpt lat="45.61323097469898" lon="8.947679459852976"><ele>220.0</ele><time>2026-04-19T08:38:59Z</time></trkpt><trkpt lat="45.61320279239966" lon="8.947596372847329"><ele>219.99999999999997</ele><time>2026-04-19T08:39:01Z</time></trkpt><trkpt lat="45.61313033800573" lon="8.947541751149899"><ele>220.0</ele><time>2026-04-19T08:39:04Z</time></trkpt><trkpt lat="45.61307506307284" lon="8.947473372521829"><ele>219.99999999999997</ele><time>2026-04-19T08:39:07Z</time></trkpt><trkpt lat="45.613000220726356" lon="8.947399518293661"><ele>220.0</ele><time>2026-04-19T08:39:10Z</time></trkpt><trkpt lat="45.612959003066976" lon="8.947318648682435"><ele>220.0</ele><time>2026-04-19T08:39:13Z</time></trkpt><trkpt lat="45.61289534962014" lon="8.947236222647888"><ele>220.0</ele><time>2026-04-19T08:39:16Z</time></trkpt><trkpt lat="45.61285960648718" lon="8.9471171222835"><ele>219.99999999999997</ele><time>2026-04-19T08:39:19Z</time></trkpt><trkpt lat="45.612819553027215" lon="8.947019577049879"><ele>220.0</ele><time>2026-04-19T08:39:22Z</time></trkpt><trkpt lat="45.61275915061564" lon="8.946951506901065"><ele>219.83333333333331</ele><time>2026-04-19T08:39:25Z</time></trkpt><trkpt lat="45.61269997957139" lon="8.946856506133338"><ele>219.66666666666666</ele><time>2026-04-19T08:39:28Z</time></trkpt><trkpt lat="45.6126489162828" lon="8.946785360657014"><ele>219.5</ele><time>2026-04-19T08:39:31Z</time></trkpt><trkpt lat="45.612606067058664" lon="8.946706802854335"><ele>219.33333333333331</ele><time>2026-04-19T08:39:34Z</time></trkpt><trkpt lat="45.61255017503908" lon="8.946624127658007"><ele>219.16666666666666</ele><time>2026-04-19T08:39:37Z</time></trkpt><trkpt lat="45.61250634176823" lon="8.946559024945996"><ele>219.0</ele><time>2026-04-19T08:39:39Z</time></trkpt><trkpt lat="45.61245817123345" lon="8.946463286021634"><ele>219.33333333333334</ele><time>2026-04-19T08:39:42Z</time></trkpt><trkpt lat="45.61241930999249" lon="8.9463827966438"><ele>219.66666666666669</ele><time>2026-04-19T08:39:44Z</time></trkpt><trkpt lat="45.61236943750808" lon="8.946290487952519"><ele>220.0</ele><time>2026-04-19T08:39:47Z</time></trkpt><trkpt lat="45.61232055505432" lon="8.946198748924873"><ele>220.33333333333334</ele><time>2026-04-19T08:39:50Z</time></trkpt><trkpt lat="45.61227018403744" lon="8.946096152873409"><ele>220.66666666666669</ele><time>2026-04-19T08:39:53Z</time></trkpt><trkpt lat="45.61223304072855" lon="8.94599061046286"><ele>221.0</ele><time>2026-04-19T08:39:56Z</time></trkpt><trkpt lat="45.612177956931504" lon="8.94590297227466"><ele>221.16666666666669</ele><time>2026-04-19T08:39:59Z</time></trkpt><trkpt lat="45.612108219237335" lon="8.945805449272479"><ele>221.33333333333334</ele><time>2026-04-19T08:40:02Z</time></trkpt><trkpt lat="45.6121202886235" lon="8.94566772667641"><ele>221.5</ele><time>2026-04-19T08:40:05Z</time></trkpt><trkpt lat="45.61209350256487" lon="8.945579646001832"><ele>221.66666666666669</ele><time>2026-04-19T08:40:07Z</time></trkpt><trkpt lat="45.61204132719637" lon="8.945514470497093"><ele>221.83333333333334</ele><time>2026-04-19T08:40:09Z</time></trkpt><trkpt lat="45.61198711619095" lon="8.945416770257818"><ele>222.0</ele><time>2026-04-19T08:40:12Z</time></trkpt><trkpt lat="45.61193548354081" lon="8.945344962592328"><ele>221.5</ele><time>2026-04-19T08:40:14Z</time></trkpt><trkpt lat="45.611855069728065" lon="8.945292392174608"><ele>221.0</ele><time>2026-04-19T08:40:17.013Z</time></trkpt><trkpt lat="45.61177437180276" lon="8.945247606079935"><ele>220.5</ele><time>2026-04-19T08:40:20.014Z</time></trkpt><trkpt lat="45.61178208412526" lon="8.945153152125096"><ele>220.0</ele><time>2026-04-19T08:40:21Z</time></trkpt><trkpt lat="45.61171559954708" lon="8.945130074873838"><ele>219.5</ele><time>2026-04-19T08:40:23Z</time></trkpt><trkpt lat="45.61167281859859" lon="8.945039094259117"><ele>219.0</ele><time>2026-04-19T08:40:25Z</time></trkpt><trkpt lat="45.61161547860318" lon="8.94494936082937"><ele>219.0</ele><time>2026-04-19T08:40:28.016Z</time></trkpt><trkpt lat="45.611554466968485" lon="8.944856007784125"><ele>219.0</ele><time>2026-04-19T08:40:31.016Z</time></trkpt><trkpt lat="45.61150658011037" lon="8.944774858367266"><ele>219.0</ele><time>2026-04-19T08:40:33.016Z</time></trkpt><trkpt lat="45.61145848027673" lon="8.944640687363473"><ele>219.0</ele><time>2026-04-19T08:40:36Z</time></trkpt><trkpt lat="45.61140858508261" lon="8.94453285548922"><ele>219.0</ele><time>2026-04-19T08:40:39Z</time></trkpt><trkpt lat="45.61135815410823" lon="8.944446168266785"><ele>219.0</ele><time>2026-04-19T08:40:42Z</time></trkpt><trkpt lat="45.611279972070804" lon="8.944427841748368"><ele>219.0</ele><time>2026-04-19T08:40:44Z</time></trkpt><trkpt lat="45.61122602317953" lon="8.944317544802717"><ele>219.0</ele><time>2026-04-19T08:40:48Z</time></trkpt><trkpt lat="45.611186050423775" lon="8.944217619186443"><ele>219.0</ele><time>2026-04-19T08:40:51Z</time></trkpt><trkpt lat="45.61115807018283" lon="8.944108211584199"><ele>219.0</ele><time>2026-04-19T08:40:54Z</time></trkpt><trkpt lat="45.61113006022853" lon="8.944025094654554"><ele>219.0</ele><time>2026-04-19T08:40:56Z</time></trkpt><trkpt lat="45.61108471628987" lon="8.94392794017068"><ele>219.0</ele><time>2026-04-19T08:40:59Z</time></trkpt><trkpt lat="45.611031368717896" lon="8.943819382120244"><ele>219.0</ele><time>2026-04-19T08:41:02Z</time></trkpt><trkpt lat="45.61099266370849" lon="8.943715806498167"><ele>219.0</ele><time>2026-04-19T08:41:05Z</time></trkpt><trkpt lat="45.61093245629548" lon="8.943622176309027"><ele>219.0</ele><time>2026-04-19T08:41:08Z</time></trkpt><trkpt lat="45.61087236483896" lon="8.94353089912024"><ele>219.0</ele><time>2026-04-19T08:41:11Z</time></trkpt><trkpt lat="45.6108200290229" lon="8.94344296418616"><ele>219.0</ele><time>2026-04-19T08:41:14Z</time></trkpt><trkpt lat="45.61076414305417" lon="8.943346580134437"><ele>219.0</ele><time>2026-04-19T08:41:17Z</time></trkpt><trkpt lat="45.610747561319585" lon="8.943256270390426"><ele>219.0</ele><time>2026-04-19T08:41:19Z</time></trkpt><trkpt lat="45.61069686603364" lon="8.943160487306214"><ele>219.0</ele><time>2026-04-19T08:41:22Z</time></trkpt><trkpt lat="45.61064456932879" lon="8.943072699276032"><ele>219.0</ele><time>2026-04-19T08:41:25Z</time></trkpt><trkpt lat="45.610606854435346" lon="8.94297230003859"><ele>219.0</ele><time>2026-04-19T08:41:28Z</time></trkpt><trkpt lat="45.61056982165992" lon="8.94287911846717"><ele>219.0</ele><time>2026-04-19T08:41:31Z</time></trkpt><trkpt lat="45.61052831049351" lon="8.942776728810284"><ele>219.0</ele><time>2026-04-19T08:41:34Z</time></trkpt><trkpt lat="45.610479565945546" lon="8.942718645613487"><ele>219.0</ele><time>2026-04-19T08:41:36Z</time></trkpt><trkpt lat="45.61043787575647" lon="8.942619076393488"><ele>219.0</ele><time>2026-04-19T08:41:39Z</time></trkpt><trkpt lat="45.61040588796355" lon="8.942518626113227"><ele>219.0</ele><time>2026-04-19T08:41:42Z</time></trkpt><trkpt lat="45.61037362092634" lon="8.942409953592831"><ele>219.0</ele><time>2026-04-19T08:41:45Z</time></trkpt><trkpt lat="45.61033471206381" lon="8.942296614942641"><ele>219.0</ele><time>2026-04-19T08:41:48Z</time></trkpt><trkpt lat="45.610292037575555" lon="8.94219160465736"><ele>219.0</ele><time>2026-04-19T08:41:51Z</time></trkpt><trkpt lat="45.61024844122284" lon="8.94207419428615"><ele>218.83333333333334</ele><time>2026-04-19T08:41:54Z</time></trkpt><trkpt lat="45.6102289300197" lon="8.94194909952696"><ele>218.66666666666669</ele><time>2026-04-19T08:41:57Z</time></trkpt><trkpt lat="45.610163638956315" lon="8.941856008511131"><ele>218.5</ele><time>2026-04-19T08:42:00Z</time></trkpt><trkpt lat="45.61011095013233" lon="8.941799525176691"><ele>218.33333333333334</ele><time>2026-04-19T08:42:02Z</time></trkpt><trkpt lat="45.610085702153846" lon="8.941709827536796"><ele>218.16666666666669</ele><time>2026-04-19T08:42:04Z</time></trkpt><trkpt lat="45.61005045916678" lon="8.941584519413405"><ele>218.0</ele><time>2026-04-19T08:42:07Z</time></trkpt><trkpt lat="45.60999575997488" lon="8.941502294579173"><ele>218.00000000000003</ele><time>2026-04-19T08:42:10Z</time></trkpt><trkpt lat="45.609951673825826" lon="8.941431580079236"><ele>218.0</ele><time>2026-04-19T08:42:12Z</time></trkpt><trkpt lat="45.60989115973438" lon="8.9413400937224"><ele>218.0</ele><time>2026-04-19T08:42:15Z</time></trkpt><trkpt lat="45.609848208424886" lon="8.941223754551318"><ele>218.0</ele><time>2026-04-19T08:42:18Z</time></trkpt><trkpt lat="45.60978882933638" lon="8.941136954725337"><ele>218.00000000000003</ele><time>2026-04-19T08:42:21Z</time></trkpt><trkpt lat="45.60974061634547" lon="8.941027537322748"><ele>218.0</ele><time>2026-04-19T08:42:24Z</time></trkpt><trkpt lat="45.60968556687735" lon="8.94092808461523"><ele>218.33333333333334</ele><time>2026-04-19T08:42:27Z</time></trkpt><trkpt lat="45.609619941223464" lon="8.940837891970254"><ele>218.66666666666669</ele><time>2026-04-19T08:42:30Z</time></trkpt><trkpt lat="45.60958412912596" lon="8.940715001924824"><ele>219.0</ele><time>2026-04-19T08:42:33Z</time></trkpt><trkpt lat="45.60955042023541" lon="8.940637290741153"><ele>219.33333333333331</ele><time>2026-04-19T08:42:35Z</time></trkpt><trkpt lat="45.60950363096559" lon="8.940564497091284"><ele>219.66666666666666</ele><time>2026-04-19T08:42:37Z</time></trkpt><trkpt lat="45.609443123569996" lon="8.940514097642408"><ele>220.0</ele><time>2026-04-19T08:42:39Z</time></trkpt><trkpt lat="45.60938027118576" lon="8.940473967696274"><ele>219.99999999999997</ele><time>2026-04-19T08:42:41Z</time></trkpt><trkpt lat="45.60933464834088" lon="8.940403985598266"><ele>220.0</ele><time>2026-04-19T08:42:43Z</time></trkpt><trkpt lat="45.60928107115254" lon="8.940355555230237"><ele>220.0</ele><time>2026-04-19T08:42:45Z</time></trkpt><trkpt lat="45.60921091180232" lon="8.940280701046136"><ele>220.0</ele><time>2026-04-19T08:42:48Z</time></trkpt><trkpt lat="45.609148346034424" lon="8.940204832355686"><ele>219.99999999999997</ele><time>2026-04-19T08:42:51Z</time></trkpt><trkpt lat="45.60908832481102" lon="8.94014583831156"><ele>220.0</ele><time>2026-04-19T08:42:53Z</time></trkpt><trkpt lat="45.609023038912845" lon="8.940068534208256"><ele>219.66666666666666</ele><time>2026-04-19T08:42:56Z</time></trkpt><trkpt lat="45.608944206678856" lon="8.939993584382847"><ele>219.33333333333331</ele><time>2026-04-19T08:42:59Z</time></trkpt><trkpt lat="45.60886988592637" lon="8.939936561229686"><ele>219.0</ele><time>2026-04-19T08:43:02Z</time></trkpt><trkpt lat="45.60879749692344" lon="8.939869457641954"><ele>218.66666666666669</ele><time>2026-04-19T08:43:05Z</time></trkpt><trkpt lat="45.6087423546843" lon="8.93981650503242"><ele>218.33333333333334</ele><time>2026-04-19T08:43:07Z</time></trkpt><trkpt lat="45.60868260365187" lon="8.93973135132132"><ele>218.0</ele><time>2026-04-19T08:43:10Z</time></trkpt><trkpt lat="45.608624430687264" lon="8.939690887028142"><ele>218.00000000000003</ele><time>2026-04-19T08:43:12Z</time></trkpt><trkpt lat="45.60856525080018" lon="8.939634345805386"><ele>218.0</ele><time>2026-04-19T08:43:15Z</time></trkpt><trkpt lat="45.608517707451206" lon="8.939574800430007"><ele>218.0</ele><time>2026-04-19T08:43:17Z</time></trkpt><trkpt lat="45.608457298555344" lon="8.939484951655324"><ele>218.0</ele><time>2026-04-19T08:43:20Z</time></trkpt><trkpt lat="45.608392096150844" lon="8.939399830121998"><ele>218.00000000000003</ele><time>2026-04-19T08:43:23Z</time></trkpt><trkpt lat="45.60834848537258" lon="8.93929961723043"><ele>218.0</ele><time>2026-04-19T08:43:26Z</time></trkpt><trkpt lat="45.60829054302874" lon="8.93921327244186"><ele>218.00000000000003</ele><time>2026-04-19T08:43:29Z</time></trkpt><trkpt lat="45.60824271960335" lon="8.939118601919041"><ele>218.0</ele><time>2026-04-19T08:43:32Z</time></trkpt><trkpt lat="45.60820200102817" lon="8.939006217821868"><ele>218.0</ele><time>2026-04-19T08:43:35Z</time></trkpt><trkpt lat="45.608133123594335" lon="8.938938594207862"><ele>218.0</ele><time>2026-04-19T08:43:38Z</time></trkpt><trkpt lat="45.60808980645166" lon="8.938833530992277"><ele>218.00000000000003</ele><time>2026-04-19T08:43:41Z</time></trkpt><trkpt lat="45.60803809011517" lon="8.938728635716432"><ele>218.0</ele><time>2026-04-19T08:43:44Z</time></trkpt><trkpt lat="45.607987547611074" lon="8.93863068198356"><ele>218.00000000000003</ele><time>2026-04-19T08:43:47Z</time></trkpt><trkpt lat="45.60793009340053" lon="8.938524907266304"><ele>218.0</ele><time>2026-04-19T08:43:50Z</time></trkpt><trkpt lat="45.60788262753141" lon="8.938459868169243"><ele>218.0</ele><time>2026-04-19T08:43:52Z</time></trkpt><trkpt lat="45.60783296080796" lon="8.938358380619283"><ele>218.0</ele><time>2026-04-19T08:43:55Z</time></trkpt><trkpt lat="45.60779139586886" lon="8.938240280605635"><ele>218.00000000000003</ele><time>2026-04-19T08:43:58Z</time></trkpt><trkpt lat="45.60774353081277" lon="8.938121263586426"><ele>218.0</ele><time>2026-04-19T08:44:01Z</time></trkpt><trkpt lat="45.60770290690516" lon="8.93805110084597"><ele>218.16666666666669</ele><time>2026-04-19T08:44:03Z</time></trkpt><trkpt lat="45.607661015247345" lon="8.93794161072017"><ele>218.33333333333334</ele><time>2026-04-19T08:44:06Z</time></trkpt><trkpt lat="45.60759979537668" lon="8.937845780368713"><ele>218.5</ele><time>2026-04-19T08:44:08.999Z</time></trkpt><trkpt lat="45.60758097555971" lon="8.937747532574031"><ele>218.66666666666669</ele><time>2026-04-19T08:44:10.999Z</time></trkpt><trkpt lat="45.60753870342003" lon="8.937634430781038"><ele>218.83333333333334</ele><time>2026-04-19T08:44:14Z</time></trkpt><trkpt lat="45.607500034086534" lon="8.93755721882571"><ele>219.0</ele><time>2026-04-19T08:44:16Z</time></trkpt><trkpt lat="45.607450010422944" lon="8.93743800750234"><ele>220.0</ele><time>2026-04-19T08:44:19Z</time></trkpt><trkpt lat="45.60740274504731" lon="8.937328007263902"><ele>220.0</ele><time>2026-04-19T08:44:22Z</time></trkpt><trkpt lat="45.60735616560272" lon="8.937215581524514"><ele>220.0</ele><time>2026-04-19T08:44:25Z</time></trkpt><trkpt lat="45.60732736041445" lon="8.937115652583971"><ele>220.0</ele><time>2026-04-19T08:44:27Z</time></trkpt><trkpt lat="45.60728901685034" lon="8.93703155743953"><ele>220.0</ele><time>2026-04-19T08:44:29Z</time></trkpt></trkseg><trkseg><trkpt lat="45.60308111835793" lon="8.93292563036916"><ele>205.1</ele><time>2026-04-19T08:49:10Z</time></trkpt></trkseg></trk></gpx>